Flight Track Log - Related Links

Times and Time Zones

All times are in EDT time to prevent confusion due to time zone crossing. See the DAL268 flight status page for this flight to view local times or setup timezone preferences in your user account.

Time Position Orientation Groundspeed Altitude Reporting Facility
EDT Latitude Longitude Course Direction KTS MPH feet Rate Location/Type
Tue 12:04:02 AM 40.6340 -73.7730 North  Level FlightAware ADS-B
Tue 12:08:23 AM 40.6330 -73.7730 180° South Level FlightAware ADS-B
Tue 12:11:00 AM 40.4925 -73.3441 114° Southeast  Level FlightAware Approximate
Tue 12:12:00 AM 40.4458 -73.1734 119° Southeast  Level FlightAware Approximate
Tue 12:13:00 AM 40.3833 -73.0099 90° East  Level FlightAware Approximate
Tue 12:14:00 AM 40.4136 -72.8319 75° East  Level FlightAware Approximate
Tue 12:15:00 AM 40.4480 -72.6560 66° East  Level FlightAware Approximate
Tue 12:16:00 AM 40.4817 -72.4779 79° East  Level FlightAware Approximate
Tue 12:17:00 AM 40.5195 -72.3054 72° East  Level FlightAware Approximate
Tue 12:19:00 AM 40.5370 -73.4776 114° Southeast  Level FlightAware Approximate
Tue 12:20:00 AM 40.4833 -73.3102 90° East  Level FlightAware Approximate
Tue 12:21:00 AM 40.4322 -73.1417 119° Southeast  Level FlightAware Approximate
Tue 12:24:00 AM 40.5047 -73.3928 123° Southeast  Level FlightAware Approximate
Tue 12:25:00 AM 40.4580 -73.2232 105° East  Level FlightAware Approximate
Tue 12:28:00 AM 40.5228 -73.4351 114° Southeast  Level FlightAware Approximate
Tue 12:30:00 AM 40.5459 -73.5044 114° Southeast  Level FlightAware Approximate
Tue 12:31:00 AM 40.4933 -73.3464 114° Southeast  Level FlightAware Approximate
Tue 12:33:00 AM 40.5397 -73.4857 114° Southeast  Level FlightAware Approximate
Tue 12:36:00 AM 40.5044 -73.3922 123° Southeast  Level FlightAware Approximate
Tue 12:39:00 AM 40.5017 -73.3867 123° Southeast  Level FlightAware Approximate
Tue 12:42:00 AM 40.5089 -73.4012 123° Southeast  Level FlightAware Approximate
Tue 12:43:00 AM 40.4620 -73.2431 105° East  Level FlightAware Approximate
Tue 12:47:00 AM 40.5063 -73.3959 123° Southeast  Level FlightAware Approximate
Tue 12:47:53 AM 40.6330 -73.7830 105° East  Level FlightAware ADS-B
Tue 12:48:00 AM 40.4607 -73.2370 105° East  Level FlightAware Approximate
Tue 12:50:00 AM 40.5269 -73.4474 114° Southeast  Level FlightAware Approximate
Tue 12:51:00 AM 40.4799 -73.2932 123° Southeast  Level FlightAware Approximate
Tue 12:52:00 AM 40.4308 -73.1384 119° Southeast  Level FlightAware Approximate
Tue 12:53:00 AM 40.3833 -72.9843 90° East  Level FlightAware Approximate
Tue 12:54:00 AM 40.4158 -72.8211 75° East  Level FlightAware Approximate
Tue 12:55:00 AM 40.4469 -72.6591 66° East  Level FlightAware Approximate
Tue 12:56:00 AM 40.4792 -72.4956 79° East  Level FlightAware Approximate
Tue 12:57:00 AM 40.5167 -72.3373 90° East  Level FlightAware Approximate
Tue 12:58:00 AM 40.5521 -72.1752 72° East  Level FlightAware Approximate
Tue 12:59:00 AM 40.5924 -72.0139 72° East  Level FlightAware Approximate
Tue 01:00:00 AM 40.6274 -71.8511 66° East  Level FlightAware Approximate
Tue 01:01:00 AM 40.6683 -71.6900 78° East  Level FlightAware Approximate
Tue 01:02:00 AM 40.6960 -71.5240 78° East  Level FlightAware Approximate
Tue 01:03:00 AM 40.7270 -71.3595 74° East  Level FlightAware Approximate
Tue 01:04:00 AM 40.7623 -71.1958 74° East  Level FlightAware Approximate
Tue 01:05:00 AM 40.7975 -71.0320 74° East  Level FlightAware Approximate
Tue 01:06:00 AM 40.8324 -70.8680 74° East  Level FlightAware Approximate
Tue 01:07:00 AM 40.8671 -70.7039 74° East  Level FlightAware Approximate
Tue 01:08:00 AM 40.9015 -70.5395 74° East  Level FlightAware Approximate
Tue 01:09:00 AM 40.9358 -70.3750 75° East  Level FlightAware Approximate
Tue 01:10:00 AM 40.9697 -70.2103 75° East  Level FlightAware Approximate
Tue 01:11:00 AM 41.0022 -70.0517 75° East  Level FlightAware Approximate
Tue 01:12:00 AM 41.0345 -69.8928 75° East  Level FlightAware Approximate
Tue 01:20:00 AM 40.5246 -73.4405 114° Southeast  Level FlightAware Approximate
Tue 01:21:00 AM 40.4706 -73.2744 123° Southeast  Level FlightAware Approximate
Tue 01:36:00 AM 40.4976 -73.3595 114° Southeast  Level FlightAware Approximate
Tue 01:37:00 AM 40.4510 -73.1883 105° East  Level FlightAware Approximate
Tue 01:39:00 AM 40.5254 -73.4429 114° Southeast  Level FlightAware Approximate
Tue 01:40:00 AM 40.4717 -73.2767 123° Southeast  Level FlightAware Approximate
Tue 01:41:00 AM 40.4178 -73.1083 119° Southeast  Level FlightAware Approximate
Tue 01:41:21 AM 40.6180 -73.7640 119° Southeast  Level FlightAware ADS-B
Tue 01:44:00 AM 40.4979 -73.3603 114° Southeast  Level FlightAware Approximate
Tue 01:45:00 AM 40.4512 -73.1891 105° East  Level FlightAware Approximate
Tue 01:46:00 AM 40.3865 -73.0260 114° Southeast  Level FlightAware Approximate
Tue 01:47:00 AM 40.4106 -72.8471 75° East  Level FlightAware Approximate
Tue 01:48:00 AM 40.4436 -72.6693 66° East  Level FlightAware Approximate
Tue 01:49:00 AM 40.4799 -72.4910 79° East  Level FlightAware Approximate
Tue 01:52:00 AM 40.4849 -73.3214 114° Southeast  Level FlightAware Approximate
Tue 01:56:00 AM 40.5005 -73.3843 123° Southeast  Level FlightAware Approximate
Tue 01:59:00 AM 40.4981 -73.3610 114° Southeast  Level FlightAware Approximate
Tue 02:15:00 AM 40.5277 -73.4498 114° Southeast  Level FlightAware Approximate
Tue 02:17:00 AM 40.5239 -73.4385 114° Southeast  Level FlightAware Approximate
Tue 02:22:00 AM 40.4944 -73.3497 114° Southeast  Level FlightAware Approximate
Tue 02:31:00 AM 40.5250 -73.4416 114° Southeast  Level FlightAware Approximate
Tue 02:32:00 AM 40.4706 -73.2746 123° Southeast  Level FlightAware Approximate
Tue 02:33:00 AM 40.4166 -73.1053 119° Southeast  Level FlightAware Approximate
Tue 02:34:00 AM 40.3919 -72.9324 72° East  Level FlightAware Approximate
Tue 02:35:00 AM 40.4321 -72.7550 72° East  Level FlightAware Approximate
Tue 02:36:00 AM 40.4674 -72.5782 79° East  Level FlightAware Approximate
Tue 02:37:00 AM 40.5088 -72.4031 62° Northeast  Level FlightAware Approximate
Tue 02:38:00 AM 40.5396 -72.2251 72° East  Level FlightAware Approximate
Tue 02:39:00 AM 40.5837 -72.0489 72° East  Level FlightAware Approximate
Tue 02:40:00 AM 40.6210 -71.8703 66° East  Level FlightAware Approximate
Tue 02:41:00 AM 40.6675 -71.6951 78° East  Level FlightAware Approximate
Tue 02:42:00 AM 40.6978 -71.5135 78° East  Level FlightAware Approximate
Tue 02:43:00 AM 40.7342 -71.3346 73° East  Level FlightAware Approximate
Tue 02:44:00 AM 40.7750 -71.1565 73° East  Level FlightAware Approximate
Tue 02:45:00 AM 40.8090 -71.0066 73° East  Level FlightAware Approximate
Tue 02:46:00 AM 40.8427 -70.8568 73° East  Level FlightAware Approximate
Tue 02:47:00 AM 40.8752 -70.7064 75° East  Level FlightAware Approximate
Tue 02:48:00 AM 40.9047 -70.5549 75° East  Level FlightAware Approximate
Tue 02:49:00 AM 40.9341 -70.4032 76° East  Level FlightAware Approximate
Tue 02:50:00 AM 40.9632 -70.2514 76° East  Level FlightAware Approximate
Tue 02:51:00 AM 40.9936 -70.1000 75° East  Level FlightAware Approximate
Tue 02:52:00 AM 41.0239 -69.9485 75° East  Level FlightAware Approximate
Tue 02:53:00 AM 41.0541 -69.7968 75° East  Level FlightAware Approximate
Tue 02:54:00 AM 41.0667 -69.6421 90° East  Level FlightAware Approximate
Tue 02:55:00 AM 41.0698 -69.4852 88° East  Level FlightAware Approximate
Tue 02:56:00 AM 41.0729 -69.3284 88° East  Level FlightAware Approximate
Tue 02:57:00 AM 41.0759 -69.1715 89° East  Level FlightAware Approximate
Tue 02:58:00 AM 41.0785 -69.0146 89° East  Level FlightAware Approximate
Tue 02:59:00 AM 41.0810 -68.8577 89° East  Level FlightAware Approximate
Tue 03:00:00 AM 41.0833 -68.7008 89° East  Level FlightAware Approximate
Tue 03:01:00 AM 41.0859 -68.5439 89° East  Level FlightAware Approximate
Tue 03:02:00 AM 41.0883 -68.3870 89° East  Level FlightAware Approximate
Tue 03:03:00 AM 41.0905 -68.2300 89° East  Level FlightAware Approximate
Tue 03:04:00 AM 41.0924 -68.0731 89° East  Level FlightAware Approximate
Tue 03:05:00 AM 41.0941 -67.9162 89° East  Level FlightAware Approximate
Tue 03:06:00 AM 41.0957 -67.7592 89° East  Level FlightAware Approximate
Tue 03:07:00 AM 41.0970 -67.6022 89° East  Level FlightAware Approximate
Tue 03:08:00 AM 41.0981 -67.4453 89° East  Level FlightAware Approximate
Tue 03:09:00 AM 41.0990 -67.2883 90° East  Level FlightAware Approximate
Tue 03:10:00 AM 41.0996 -67.1313 90° East  Level FlightAware Approximate
Tue 03:11:00 AM 41.1224 -66.9875 58° Northeast  Level FlightAware Approximate
Tue 03:12:00 AM 41.1842 -66.8536 58° Northeast  Level FlightAware Approximate
Tue 03:13:00 AM 41.2459 -66.7194 59° Northeast  Level FlightAware Approximate
Tue 03:14:00 AM 41.3074 -66.5849 59° Northeast  Level FlightAware Approximate
Tue 03:15:00 AM 41.3687 -66.4502 59° Northeast  Level FlightAware Approximate
Tue 03:16:00 AM 41.4299 -66.3152 59° Northeast  Level FlightAware Approximate
Tue 03:17:00 AM 41.4909 -66.1800 59° Northeast  Level FlightAware Approximate
Tue 03:18:00 AM 41.5500 -66.0482 59° Northeast  Level FlightAware Approximate
Tue 03:19:00 AM 41.6083 -65.9181 59° Northeast  Level FlightAware Approximate
Tue 03:20:00 AM 41.6663 -65.7876 59° Northeast  Level FlightAware Approximate
Tue 03:21:00 AM 41.7243 -65.6570 59° Northeast  Level FlightAware Approximate
Tue 03:22:00 AM 41.7820 -65.5261 59° Northeast  Level FlightAware Approximate
Tue 03:23:00 AM 41.8397 -65.3950 59° Northeast  Level FlightAware Approximate
Tue 03:24:00 AM 41.8972 -65.2637 60° Northeast  Level FlightAware Approximate
Tue 03:25:00 AM 41.9546 -65.1321 60° Northeast  Level FlightAware Approximate
Tue 03:26:00 AM 42.0118 -65.0004 60° Northeast  Level FlightAware Approximate
Tue 03:27:00 AM 42.0689 -64.8683 60° Northeast  Level FlightAware Approximate
Tue 03:28:00 AM 42.1258 -64.7361 60° Northeast  Level FlightAware Approximate
Tue 03:29:00 AM 42.1826 -64.6036 60° Northeast  Level FlightAware Approximate
Tue 03:30:00 AM 42.2393 -64.4709 60° Northeast  Level FlightAware Approximate
Tue 03:31:00 AM 42.2935 -64.3432 60° Northeast  Level FlightAware Approximate
Tue 03:32:00 AM 42.3476 -64.2152 60° Northeast  Level FlightAware Approximate
Tue 03:33:00 AM 42.4016 -64.0871 60° Northeast  Level FlightAware Approximate
Tue 03:34:00 AM 42.4555 -63.9587 60° Northeast  Level FlightAware Approximate
Tue 03:35:00 AM 42.5092 -63.8301 60° Northeast  Level FlightAware Approximate
Tue 03:36:00 AM 42.5627 -63.7012 61° Northeast  Level FlightAware Approximate
Tue 03:37:00 AM 42.6161 -63.5722 61° Northeast  Level FlightAware Approximate
Tue 03:38:00 AM 42.6694 -63.4429 61° Northeast  Level FlightAware Approximate
Tue 03:39:00 AM 42.7225 -63.3134 61° Northeast  Level FlightAware Approximate
Tue 03:40:00 AM 42.7755 -63.1837 61° Northeast  Level FlightAware Approximate
Tue 03:41:00 AM 42.8283 -63.0537 61° Northeast  Level FlightAware Approximate
Tue 03:42:00 AM 42.8810 -62.9236 61° Northeast  Level FlightAware Approximate
Tue 03:43:00 AM 42.9335 -62.7932 61° Northeast  Level FlightAware Approximate
Tue 03:44:00 AM 42.9859 -62.6626 61° Northeast  Level FlightAware Approximate
Tue 03:45:00 AM 43.0381 -62.5318 61° Northeast  Level FlightAware Approximate
Tue 03:46:00 AM 43.0902 -62.4007 61° Northeast  Level FlightAware Approximate
Tue 03:47:00 AM 43.1421 -62.2695 61° Northeast  Level FlightAware Approximate
Tue 03:48:00 AM 43.1939 -62.1380 62° Northeast  Level FlightAware Approximate
Tue 03:49:00 AM 43.2455 -62.0062 62° Northeast  Level FlightAware Approximate
Tue 03:50:00 AM 43.2970 -61.8743 62° Northeast  Level FlightAware Approximate
Tue 03:51:00 AM 43.3477 -61.7417 62° Northeast  Level FlightAware Approximate
Tue 03:52:00 AM 43.3982 -61.6088 62° Northeast  Level FlightAware Approximate
Tue 03:53:00 AM 43.4486 -61.4758 62° Northeast  Level FlightAware Approximate
Tue 03:54:00 AM 43.4969 -61.3475 63° Northeast  Level FlightAware Approximate
Tue 03:55:00 AM 43.5451 -61.2190 63° Northeast  Level FlightAware Approximate
Tue 03:56:00 AM 43.5931 -61.0904 63° Northeast  Level FlightAware Approximate
Tue 03:57:00 AM 43.6410 -60.9615 63° Northeast  Level FlightAware Approximate
Tue 03:58:00 AM 43.6886 -60.8326 63° Northeast  Level FlightAware Approximate
Tue 03:59:00 AM 43.7362 -60.7034 63° Northeast  Level FlightAware Approximate
Tue 04:00:00 AM 43.7835 -60.5741 63° Northeast  Level FlightAware Approximate
Tue 04:01:00 AM 43.8310 -60.4448 63° Northeast  Level FlightAware Approximate
Tue 04:02:00 AM 43.8789 -60.3156 63° Northeast  Level FlightAware Approximate
Tue 04:03:00 AM 43.9267 -60.1862 63° Northeast  Level FlightAware Approximate
Tue 04:04:00 AM 43.9743 -60.0567 63° Northeast  Level FlightAware Approximate
Tue 04:05:00 AM 44.0218 -59.9269 63° Northeast  Level FlightAware Approximate
Tue 04:06:00 AM 44.0691 -59.7969 63° Northeast  Level FlightAware Approximate
Tue 04:07:00 AM 44.1163 -59.6667 63° Northeast  Level FlightAware Approximate
Tue 04:08:00 AM 44.1633 -59.5363 63° Northeast  Level FlightAware Approximate
Tue 04:09:00 AM 44.2102 -59.4057 63° Northeast  Level FlightAware Approximate
Tue 04:10:00 AM 44.2570 -59.2749 63° Northeast  Level FlightAware Approximate
Tue 04:11:00 AM 44.3036 -59.1438 64° Northeast  Level FlightAware Approximate
Tue 04:12:00 AM 44.3500 -59.0126 64° Northeast  Level FlightAware Approximate
Tue 04:13:00 AM 44.3963 -58.8812 64° Northeast  Level FlightAware Approximate
Tue 04:14:00 AM 44.4424 -58.7495 64° Northeast  Level FlightAware Approximate
Tue 04:15:00 AM 44.4884 -58.6177 64° Northeast  Level FlightAware Approximate
Tue 04:16:00 AM 44.5342 -58.4856 64° Northeast  Level FlightAware Approximate
Tue 04:17:00 AM 44.5799 -58.3533 64° Northeast  Level FlightAware Approximate
Tue 04:18:00 AM 44.6254 -58.2209 64° Northeast  Level FlightAware Approximate
Tue 04:19:00 AM 44.6708 -58.0882 64° Northeast  Level FlightAware Approximate
Tue 04:20:00 AM 44.7160 -57.9553 64° Northeast  Level FlightAware Approximate
Tue 04:21:00 AM 44.7611 -57.8222 64° Northeast  Level FlightAware Approximate
Tue 04:22:00 AM 44.8060 -57.6889 65° Northeast  Level FlightAware Approximate
Tue 04:23:00 AM 44.8507 -57.5554 65° Northeast  Level FlightAware Approximate
Tue 04:24:00 AM 44.8954 -57.4216 65° Northeast  Level FlightAware Approximate
Tue 04:25:00 AM 44.9398 -57.2877 65° Northeast  Level FlightAware Approximate
Tue 04:26:00 AM 44.9841 -57.1536 65° Northeast  Level FlightAware Approximate
Tue 04:27:00 AM 45.0282 -57.0192 65° Northeast  Level FlightAware Approximate
Tue 04:28:00 AM 45.0722 -56.8847 65° Northeast  Level FlightAware Approximate
Tue 04:29:00 AM 45.1160 -56.7499 65° Northeast  Level FlightAware Approximate
Tue 04:30:00 AM 45.1596 -56.6149 65° Northeast  Level FlightAware Approximate
Tue 04:31:00 AM 45.2031 -56.4798 65° Northeast  Level FlightAware Approximate
Tue 04:32:00 AM 45.2465 -56.3444 66° East  Level FlightAware Approximate
Tue 04:33:00 AM 45.2888 -56.2113 66° East  Level FlightAware Approximate
Tue 04:34:00 AM 45.3311 -56.0780 66° East  Level FlightAware Approximate
Tue 04:35:00 AM 45.3731 -55.9446 66° East  Level FlightAware Approximate
Tue 04:36:00 AM 45.4150 -55.8109 66° East  Level FlightAware Approximate
Tue 04:37:00 AM 45.4567 -55.6770 66° East  Level FlightAware Approximate
Tue 04:38:00 AM 45.4983 -55.5429 66° East  Level FlightAware Approximate
Tue 04:39:00 AM 45.5397 -55.4087 66° East  Level FlightAware Approximate
Tue 04:40:00 AM 45.5810 -55.2742 66° East  Level FlightAware Approximate
Tue 04:41:00 AM 45.6222 -55.1396 66° East  Level FlightAware Approximate
Tue 04:42:00 AM 45.6783 -54.9546 66° East  Level FlightAware Approximate
Tue 04:43:00 AM 45.7342 -54.7693 67° East  Level FlightAware Approximate
Tue 04:44:00 AM 45.7897 -54.5836 67° East  Level FlightAware Approximate
Tue 04:45:00 AM 45.8450 -54.3976 67° East  Level FlightAware Approximate
Tue 04:46:00 AM 45.9000 -54.2112 67° East  Level FlightAware Approximate
Tue 04:47:00 AM 45.9546 -54.0244 67° East  Level FlightAware Approximate
Tue 04:48:00 AM 46.0090 -53.8372 67° East  Level FlightAware Approximate
Tue 04:49:00 AM 46.0630 -53.6497 67° East  Level FlightAware Approximate
Tue 04:50:00 AM 46.1168 -53.4618 68° East  Level FlightAware Approximate
Tue 04:51:00 AM 46.1702 -53.2736 68° East  Level FlightAware Approximate
Tue 04:52:00 AM 46.2233 -53.0850 68° East  Level FlightAware Approximate
Tue 04:53:00 AM 46.2761 -52.8960 68° East  Level FlightAware Approximate
Tue 04:54:00 AM 46.3286 -52.7066 68° East  Level FlightAware Approximate
Tue 04:55:00 AM 46.3808 -52.5169 68° East  Level FlightAware Approximate
Tue 04:56:00 AM 46.4327 -52.3269 68° East  Level FlightAware Approximate
Tue 04:57:00 AM 46.4696 -52.1905 68° East  Level FlightAware Approximate
Tue 04:58:00 AM 46.5064 -52.0540 69° East  Level FlightAware Approximate
Tue 04:59:00 AM 46.5430 -51.9174 69° East  Level FlightAware Approximate
Tue 05:00:00 AM 46.5795 -51.7805 69° East  Level FlightAware Approximate
Tue 05:01:00 AM 46.6158 -51.6434 69° East  Level FlightAware Approximate
Tue 05:02:00 AM 46.6519 -51.5062 69° East  Level FlightAware Approximate
Tue 05:03:00 AM 46.6879 -51.3688 69° East  Level FlightAware Approximate
Tue 05:04:00 AM 46.7237 -51.2312 69° East  Level FlightAware Approximate
Tue 05:05:00 AM 46.7593 -51.0934 69° East  Level FlightAware Approximate
Tue 05:06:00 AM 46.7946 -50.9553 70° East  Level FlightAware Approximate
Tue 05:07:00 AM 46.8425 -50.7635 70° East  Level FlightAware Approximate
Tue 05:08:00 AM 46.8901 -50.5713 70° East  Level FlightAware Approximate
Tue 05:09:00 AM 46.9375 -50.3788 70° East  Level FlightAware Approximate
Tue 05:12:00 AM 40.5114 -73.4062 123° Southeast  Level FlightAware Approximate
Tue 05:13:00 AM 40.4611 -73.2390 105° East  Level FlightAware Approximate
Tue 05:14:00 AM 40.4029 -73.0734 119° Southeast  Level FlightAware Approximate
Tue 05:15:00 AM 40.4002 -72.8991 75° East  Level FlightAware Approximate
Tue 05:16:00 AM 40.4333 -72.7218 90° East  Level FlightAware Approximate
Tue 05:17:00 AM 40.4719 -72.5468 79° East  Level FlightAware Approximate
Tue 05:18:00 AM 40.5167 -72.3753 90° East  Level FlightAware Approximate
Tue 05:19:00 AM 40.5465 -72.1977 72° East  Level FlightAware Approximate
Tue 05:20:00 AM 40.5901 -72.0229 72° East  Level FlightAware Approximate
Tue 05:21:00 AM 40.6289 -71.8467 66° East  Level FlightAware Approximate
Tue 05:22:00 AM 40.6714 -71.6714 78° East  Level FlightAware Approximate
Tue 05:23:00 AM 40.7000 -71.4912 90° East  Level FlightAware Approximate
Tue 05:24:00 AM 40.7389 -71.3144 73° East  Level FlightAware Approximate
Tue 05:25:00 AM 40.7792 -71.1377 73° East  Level FlightAware Approximate
Tue 05:26:00 AM 40.8193 -70.9608 73° East  Level FlightAware Approximate
Tue 05:26:24 AM 40.6390 -73.8760 73° East 210 242 1,300  Level FlightAware ADS-B
Tue 05:26:32 AM 40.6340 -73.8840 231° Southwest 219 252 1,500 1,125 Climbing FlightAware ADS-B
Tue 05:26:40 AM 40.6260 -73.8910 214° Southwest 228 262 1,600 1,125 Climbing FlightAware ADS-B
Tue 05:26:48 AM 40.6190 -73.8960 208° Southwest 237 273 1,800 1,125 Climbing FlightAware ADS-B
Tue 05:26:56 AM 40.6110 -73.9000 253° West 247 284 1,900 667 Climbing FlightAware ADS-B
Tue 05:27:06 AM 40.5980 -73.9020 187° South 261 300 2,000 1,125 Climbing FlightAware ADS-B
Tue 05:27:28 AM 40.5720 -73.8910 162° South 278 320 2,500 1,448 Climbing FlightAware ADS-B
Tue 05:27:35 AM 40.5650 -73.8840 143° Southeast 285 328 2,700 1,600 Climbing FlightAware ADS-B
Tue 05:27:43 AM 40.5580 -73.8730 130° Southeast 290 334 2,900 2,100 Climbing FlightAware ADS-B
Tue 05:27:55 AM 40.5500 -73.8550 120° Southeast 292 336 3,400 2,400 Climbing FlightAware ADS-B
Tue 05:28:03 AM 40.5460 -73.8410 111° Southeast 295 339 3,700 2,118 Climbing FlightAware ADS-B
Tue 05:28:12 AM 40.5430 -73.8270 106° East 296 341 4,000 2,250 Climbing FlightAware ADS-B
Tue 05:28:19 AM 40.5418 -73.8133 97° East 297 342 4,300 2,308 Climbing FlightAware ADS-B
Tue 05:28:25 AM 40.5420 -73.8022 89° East 298 343 4,500 2,000 Climbing FlightAware ADS-B
Tue 05:28:31 AM 40.5436 -73.7921 78° East 298 343 4,700 2,500 Climbing FlightAware ADS-B
Tue 05:28:37 AM 40.5460 -73.7817 73° East 297 342 5,000 2,727 Climbing FlightAware ADS-B
Tue 05:28:53 AM 40.5537 -73.7546 69° East 300 345 5,700 2,516 Climbing FlightAware ADS-B
Tue 05:29:08 AM 40.5613 -73.7281 69° East 304 350 6,300 2,516 Climbing FlightAware ADS-B
Tue 05:29:24 AM 40.5695 -73.7003 69° East 308 354 7,000 2,438 Climbing FlightAware ADS-B
Tue 05:29:40 AM 40.5780 -73.6731 68° East 312 359 7,600 2,143 Climbing FlightAware ADS-B
Tue 05:29:52 AM 40.5839 -73.6515 70° East 317 365 8,000 1,895 Climbing FlightAware ADS-B
Tue 05:29:59 AM 40.5859 -73.6384 79° East 322 371 8,200 1,800 Climbing FlightAware ADS-B
Tue 05:30:02 AM 40.5862 -73.6321 86° East 324 373 8,300 2,250 Climbing FlightAware ADS-B
Tue 05:30:07 AM 40.5861 -73.6226 91° East 325 374 8,500 2,667 Climbing FlightAware ADS-B
Tue 05:30:11 AM 40.5853 -73.6144 97° East 327 376 8,700 2,250 Climbing FlightAware ADS-B
Tue 05:30:15 AM 40.5841 -73.6063 101° East 328 377 8,800 2,250 Climbing FlightAware ADS-B
Tue 05:30:19 AM 40.5826 -73.5981 104° East 329 379 9,000 2,667 Climbing FlightAware ADS-B
Tue 05:30:24 AM 40.5798 -73.5881 110° East 331 381 9,200 2,286 Climbing FlightAware ADS-B
Tue 05:30:40 AM 40.5702 -73.5587 113° Southeast 333 383 9,800 1,826 Climbing FlightAware ADS-B
Tue 05:31:10 AM 40.5505 -73.5015 114° Southeast 355 409 10,600 1,082 Climbing FlightAware ADS-B
Tue 05:31:41 AM 40.5284 -73.4386 115° Southeast 390 449 10,900 800 Climbing FlightAware ADS-B
Tue 05:31:55 AM 40.5178 -73.4069 114° Southeast 400 460 11,200 1,440 Climbing FlightAware ADS-B
Tue 05:32:06 AM 40.5122 -73.3822 107° East 406 467 11,500 2,000 Climbing FlightAware ADS-B
Tue 05:32:19 AM 40.5093 -73.3500 97° East 408 470 12,000 2,182 Climbing FlightAware ADS-B
Tue 05:32:50 AM 40.5152 -73.2746 84° East 412 474 13,100 2,323 Climbing FlightAware ADS-B
Tue 05:33:21 AM 40.5245 -73.1971 81° East 415 478 14,400 2,328 Climbing FlightAware ADS-B
Tue 05:33:57 AM 40.5360 -73.1049 81° East 422 486 15,700 2,118 Climbing FlightAware ADS-B
Tue 05:34:29 AM 40.5458 -73.0257 81° East 426 490 16,800 2,032 Climbing FlightAware ADS-B
Tue 05:34:59 AM 40.5553 -72.9472 81° East 433 498 17,800 1,869 Climbing FlightAware ADS-B
Tue 05:35:30 AM 40.5650 -72.8659 81° East 438 504 18,700 1,645 Climbing FlightAware ADS-B
Tue 05:36:01 AM 40.5749 -72.7838 81° East 448 516 19,500 1,452 Climbing FlightAware ADS-B
Tue 05:36:32 AM 40.5844 -72.6998 82° East 457 526 20,200 1,412 Climbing FlightAware ADS-B
Tue 05:37:09 AM 40.5956 -72.5977 82° East 465 535 21,100 1,433 Climbing FlightAware ADS-B
Tue 05:37:39 AM 40.6049 -72.5131 82° East 472 543 21,800 1,400 Climbing FlightAware ADS-B
Tue 05:38:09 AM 40.6148 -72.4248 82° East 479 551 22,500 1,377 Climbing FlightAware ADS-B
Tue 05:38:40 AM 40.6247 -72.3353 82° East 485 558 23,200 1,343 Climbing FlightAware ADS-B
Tue 05:39:16 AM 40.6360 -72.2310 82° East 491 565 24,000 1,273 Climbing FlightAware ADS-B
Tue 05:39:46 AM 40.6460 -72.1410 82° East 495 570 24,600 1,235 Climbing FlightAware ADS-B
Tue 05:40:24 AM 40.6580 -72.0340 82° East 502 578 25,400 1,120 Climbing FlightAware ADS-B
Tue 05:41:01 AM 40.6680 -71.9360 82° East 507 583 26,000 486 Climbing FlightAware ADS-B
Tue 05:41:38 AM 40.6790 -71.8400 81° East 507 583 26,000  Level FlightAware ADS-B
Tue 05:42:15 AM 40.6890 -71.7440 82° East 507 583 26,000  Level FlightAware ADS-B
Tue 05:42:51 AM 40.6990 -71.6500 82° East 507 583 26,000  Level FlightAware ADS-B
Tue 05:43:27 AM 40.7090 -71.5560 82° East 507 583 26,000  Level FlightAware ADS-B
Tue 05:44:03 AM 40.7190 -71.4620 82° East 507 583 26,000 1,794 Level FlightAware ADS-B
Tue 05:44:31 AM 40.7400 -71.2500 82° East 29,400 2,203 Climbing FlightAware ADS-B
Tue 05:46:41 AM 40.7820 -70.8260 82° East 541 623 31,800 947 Climbing FlightAware ADS-B
Tue 05:47:22 AM 40.7940 -70.7050 82° East 541 623 32,100 234 Climbing FlightAware ADS-B
Tue 05:47:58 AM 40.8050 -70.6050 82° East 541 623 32,100  Level FlightAware ADS-B
Tue 05:48:36 AM 40.8160 -70.4990 82° East 541 623 32,100  Level FlightAware ADS-B
Tue 05:49:12 AM 40.8270 -70.3990 82° East 541 623 32,100  Level FlightAware ADS-B
Tue 05:49:48 AM 40.8370 -70.2990 82° East 541 623 32,100  Level FlightAware ADS-B
Tue 05:50:24 AM 40.8480 -70.1980 82° East 541 623 32,100  Level FlightAware ADS-B
Tue 05:51:00 AM 40.8590 -70.0980 82° East 541 623 32,100  Level FlightAware ADS-B
Tue 05:51:37 AM 40.8700 -69.9950 82° East 541 623 32,100  Level FlightAware ADS-B
Tue 05:52:13 AM 40.8800 -69.8950 82° East 541 623 32,100  Level FlightAware ADS-B
Tue 05:52:49 AM 40.8910 -69.7940 82° East 541 623 32,100  Level FlightAware ADS-B
Tue 05:53:25 AM 40.9020 -69.6940 82° East 541 623 32,100  Level FlightAware ADS-B
Tue 05:54:01 AM 40.9120 -69.5940 82° East 541 623 32,100  Level FlightAware ADS-B
Tue 05:54:38 AM 40.9230 -69.4900 82° East 541 623 32,100  Level FlightAware ADS-B
Tue 05:55:14 AM 40.9340 -69.3900 82° East 541 623 32,100  Level FlightAware ADS-B
Tue 05:55:50 AM 40.9450 -69.2900 82° East 541 623 32,100  Level FlightAware ADS-B
Tue 05:56:26 AM 40.9550 -69.1890 82° East 541 623 32,100 1,390 Level FlightAware ADS-B
Tue 05:57:12 AM 40.9894 -68.7108 82° East 557 641 34,000 1,019 Climbing New York Center
Tue 05:58:12 AM 41.0064 -68.5042 84° East 557 641 33,900  Descending New York Center
Tue 05:59:12 AM 41.0214 -68.2975 84° East 557 641 34,000 50 Climbing New York Center
Tue 06:00:12 AM 41.0358 -68.0961 85° East 557 641 34,000 -50 Level New York Center
Tue 06:01:12 AM 41.0519 -67.8892 84° East 557 641 33,900  Descending New York Center
Tue 06:02:12 AM 41.0697 -67.6822 83° East 557 641 34,000 50 Climbing New York Center
Tue 06:03:12 AM 41.0850 -67.4722 84° East 562 647 34,000  Level New York Center
Tue 06:04:12 AM 41.0981 -67.2678 85° East 562 647 34,000  Level New York Center
Tue 06:05:12 AM 41.1128 -67.0606 85° East 562 647 34,000  Level New York Center
Tue 06:07:00 AM 41.1570 -66.7273 78° East  Level FlightAware Approximate
Tue 06:07:38 AM 41.1167 -67.0000 78° East 581 669 34,000  Level New York Oceanic (ODAPS)
Tue 06:14:00 AM 41.3995 -65.1105 79° East 581 669 34,000  Level FlightAware Transoceanic
Tue 06:14:08 AM 41.3760 -65.1850 79° East 585 673 34,000  Level FlightAware ADS-B
Tue 06:14:58 AM 41.3980 -65.0340 79° East 586 674 34,000  Level FlightAware ADS-B
Tue 06:15:34 AM 41.4140 -64.9260 79° East 586 674 34,000  Level FlightAware ADS-B
Tue 06:16:10 AM 41.4300 -64.8170 79° East 586 674 34,000  Level FlightAware ADS-B
Tue 06:17:25 AM 41.4730 -64.5000 80° East 595 685 34,000  Level FlightAware ADS-B
Tue 06:18:02 AM 41.4880 -64.3860 80° East 595 685 34,000  Level FlightAware ADS-B
Tue 06:18:34 AM 41.5070 -64.2460 80° East 595 685 34,000  Level FlightAware ADS-B
Tue 06:19:19 AM 41.5260 -64.1010 80° East 595 685 34,000  Level FlightAware ADS-B
Tue 06:19:52 AM 41.5450 -63.9550 80° East 595 685 34,000  Level FlightAware ADS-B
Tue 06:20:47 AM 41.5690 -63.7790 80° East 595 685 34,000  Level FlightAware ADS-B
Tue 06:21:24 AM 41.5840 -63.6650 80° East 595 685 34,000  Level FlightAware ADS-B
Tue 06:22:00 AM 41.5980 -63.5540 80° East 595 685 34,000  Level FlightAware ADS-B
Tue 06:23:36 AM 41.6490 -63.1550 80° East 592 681 34,000  Level FlightAware ADS-B
Tue 06:24:13 AM 41.6640 -63.0420 80° East 592 681 34,000  Level FlightAware ADS-B
Tue 06:24:50 AM 41.6790 -62.9280 80° East 592 681 34,000 63 Level FlightAware ADS-B
Tue 06:27:00 AM 41.7295 -62.5105 81° East  Level FlightAware Approximate
Tue 06:28:00 AM 41.7523 -62.3176 81° East  Level FlightAware Approximate
Tue 06:29:00 AM 41.7748 -62.1246 81° East  Level FlightAware Approximate
Tue 06:30:00 AM 41.7970 -61.9314 81° East  Level FlightAware Approximate
Tue 06:31:00 AM 41.8188 -61.7381 81° East  Level FlightAware Approximate
Tue 06:32:00 AM 41.8403 -61.5447 81° East  Level FlightAware Approximate
Tue 06:33:00 AM 41.8615 -61.3511 82° East  Level FlightAware Approximate
Tue 06:34:00 AM 41.8824 -61.1574 82° East  Level FlightAware Approximate
Tue 06:35:00 AM 41.9029 -60.9636 82° East  Level FlightAware Approximate
Tue 06:36:00 AM 41.9231 -60.7697 82° East  Level FlightAware Approximate
Tue 06:37:00 AM 41.9430 -60.5756 82° East  Level FlightAware Approximate
Tue 06:38:00 AM 41.9626 -60.3814 82° East  Level FlightAware Approximate
Tue 06:39:00 AM 41.9818 -60.1871 82° East  Level FlightAware Approximate
Tue 06:40:00 AM 42.0018 -59.9930 71° East  Level FlightAware Approximate
Tue 06:40:10 AM 42.0000 -60.0000 71° East 594 684 35,000  Level New York Oceanic (ODAPS)
Tue 06:41:00 AM 42.0480 -59.8070 71° East  Level FlightAware Approximate
Tue 06:42:00 AM 42.0933 -59.6233 72° East  Level FlightAware Approximate
Tue 06:43:00 AM 42.1384 -59.4393 72° East  Level FlightAware Approximate
Tue 06:44:00 AM 42.1831 -59.2551 72° East  Level FlightAware Approximate
Tue 06:45:00 AM 42.2276 -59.0706 72° East  Level FlightAware Approximate
Tue 06:46:00 AM 42.4589 -58.0963 73° East 594 684 35,000  Level FlightAware Transoceanic
Tue 06:47:00 AM 42.5080 -57.8831 73° East 594 684 35,000  Level FlightAware Transoceanic
Tue 06:48:00 AM 42.5566 -57.6696 73° East 594 684 35,000  Level FlightAware Transoceanic
Tue 06:49:00 AM 42.6048 -57.4557 73° East 594 684 35,000  Level FlightAware Transoceanic
Tue 06:50:00 AM 42.6527 -57.2415 73° East 594 684 35,000  Level FlightAware Transoceanic
Tue 06:51:00 AM 42.7001 -57.0269 73° East 594 684 35,000  Level FlightAware Transoceanic
Tue 06:52:00 AM 42.7472 -56.8121 73° East 594 684 35,000  Level FlightAware Transoceanic
Tue 06:53:00 AM 42.7938 -56.5969 74° East 594 684 35,000  Level FlightAware Transoceanic
Tue 06:54:00 AM 42.8401 -56.3814 74° East 594 684 35,000  Level FlightAware Transoceanic
Tue 06:55:00 AM 42.8859 -56.1655 74° East 594 684 35,000  Level FlightAware Transoceanic
Tue 06:56:00 AM 42.9313 -55.9494 74° East 594 684 35,000  Level FlightAware Transoceanic
Tue 06:57:00 AM 42.9763 -55.7329 74° East 594 684 35,000  Level FlightAware Transoceanic
Tue 06:58:00 AM 43.0210 -55.5161 74° East 594 684 35,000  Level FlightAware Transoceanic
Tue 06:59:00 AM 43.0652 -55.2990 75° East 594 684 35,000  Level FlightAware Transoceanic
Tue 07:00:00 AM 43.1089 -55.0816 75° East 594 684 35,000  Level FlightAware Transoceanic
Tue 07:01:00 AM 43.1523 -54.8639 75° East 594 684 35,000  Level FlightAware Transoceanic
Tue 07:02:00 AM 43.1953 -54.6458 75° East 594 684 35,000  Level FlightAware Transoceanic
Tue 07:03:00 AM 43.2378 -54.4275 75° East 594 684 35,000  Level FlightAware Transoceanic
Tue 07:04:00 AM 43.2800 -54.2089 75° East 594 684 35,000  Level FlightAware Transoceanic
Tue 07:05:00 AM 43.3217 -53.9899 75° East 594 684 35,000  Level FlightAware Transoceanic
Tue 07:06:00 AM 43.3630 -53.7707 76° East 594 684 35,000  Level FlightAware Transoceanic
Tue 07:07:00 AM 43.4039 -53.5511 76° East 594 684 35,000  Level FlightAware Transoceanic
Tue 07:08:00 AM 43.4443 -53.3313 76° East 594 684 35,000  Level FlightAware Transoceanic
Tue 07:09:00 AM 43.4844 -53.1112 76° East 594 684 35,000  Level FlightAware Transoceanic
Tue 07:10:00 AM 43.5240 -52.8908 76° East 594 684 35,000  Level FlightAware Transoceanic
Tue 07:11:00 AM 43.5632 -52.6701 76° East 594 684 35,000  Level FlightAware Transoceanic
Tue 07:12:00 AM 43.6019 -52.4491 76° East 594 684 35,000  Level FlightAware Transoceanic
Tue 07:13:00 AM 43.6403 -52.2278 77° East 594 684 35,000  Level FlightAware Transoceanic
Tue 07:14:00 AM 43.6782 -52.0062 77° East 594 684 35,000  Level FlightAware Transoceanic
Tue 07:15:00 AM 43.7157 -51.7844 77° East 594 684 35,000  Level FlightAware Transoceanic
Tue 07:16:00 AM 43.7527 -51.5623 77° East 594 684 35,000  Level FlightAware Transoceanic
Tue 07:17:00 AM 43.7894 -51.3399 77° East 594 684 35,000  Level FlightAware Transoceanic
Tue 07:18:00 AM 43.8256 -51.1172 77° East 594 684 35,000  Level FlightAware Transoceanic
Tue 07:19:00 AM 43.8613 -50.8943 78° East 594 684 35,000  Level FlightAware Transoceanic
Tue 07:20:00 AM 43.8966 -50.6711 78° East 594 684 35,000  Level FlightAware Transoceanic
Tue 07:21:00 AM 43.9315 -50.4477 78° East 594 684 35,000  Level FlightAware Transoceanic
Tue 07:22:00 AM 43.9660 -50.2240 78° East 594 684 35,000  Level FlightAware Transoceanic
Tue 07:23:00 AM 44.0000 -50.0000 63° Northeast 594 684 35,000  Level FlightAware Transoceanic
Tue 07:24:00 AM 44.0683 -49.8106 63° Northeast 594 684 35,000  Level FlightAware Transoceanic
Tue 07:25:00 AM 44.1362 -49.6207 64° Northeast 594 684 35,000  Level FlightAware Transoceanic
Tue 07:26:00 AM 44.2038 -49.4304 64° Northeast 594 684 35,000  Level FlightAware Transoceanic
Tue 07:27:00 AM 44.2712 -49.2397 64° Northeast 594 684 35,000  Level FlightAware Transoceanic
Tue 07:28:00 AM 44.3382 -49.0485 64° Northeast 594 684 35,000  Level FlightAware Transoceanic
Tue 07:28:39 AM 44.0000 -50.0000 63° Northeast 550 633 35,000  Level New York Oceanic (ODAPS)
Tue 07:29:00 AM 44.4049 -48.8569 64° Northeast 594 684 35,000  Level FlightAware Transoceanic
Tue 07:30:00 AM 44.4712 -48.6648 64° Northeast 594 684 35,000  Level FlightAware Transoceanic
Tue 07:31:00 AM 44.5373 -48.4723 64° Northeast 594 684 35,000  Level FlightAware Transoceanic
Tue 07:32:00 AM 44.6030 -48.2794 65° Northeast 594 684 35,000  Level FlightAware Transoceanic
Tue 07:33:00 AM 44.6684 -48.0860 65° Northeast 594 684 35,000  Level FlightAware Transoceanic
Tue 07:34:00 AM 44.6030 -48.2794 65° Northeast 550 633 35,000  Level FlightAware Transoceanic
Tue 07:35:00 AM 44.6684 -48.0860 65° Northeast 550 633 35,000  Level FlightAware Transoceanic
Tue 07:36:00 AM 44.7334 -47.8923 65° Northeast 550 633 35,000  Level FlightAware Transoceanic
Tue 07:37:00 AM 44.7981 -47.6980 65° Northeast 550 633 35,000  Level FlightAware Transoceanic
Tue 07:38:00 AM 44.8626 -47.5034 65° Northeast 550 633 35,000  Level FlightAware Transoceanic
Tue 07:39:00 AM 44.9266 -47.3083 65° Northeast 550 633 35,000  Level FlightAware Transoceanic
Tue 07:40:00 AM 44.9904 -47.1127 65° Northeast 550 633 35,000  Level FlightAware Transoceanic
Tue 07:41:00 AM 45.0538 -46.9168 65° Northeast 550 633 35,000  Level FlightAware Transoceanic
Tue 07:42:00 AM 45.1168 -46.7203 66° East 550 633 35,000  Level FlightAware Transoceanic
Tue 07:43:00 AM 45.1796 -46.5235 66° East 550 633 35,000  Level FlightAware Transoceanic
Tue 07:44:00 AM 45.2420 -46.3262 66° East 550 633 35,000  Level FlightAware Transoceanic
Tue 07:45:00 AM 45.3040 -46.1286 66° East 550 633 35,000  Level FlightAware Transoceanic
Tue 07:46:00 AM 45.3657 -45.9304 66° East 550 633 35,000  Level FlightAware Transoceanic
Tue 07:47:00 AM 45.4271 -45.7318 66° East 550 633 35,000  Level FlightAware Transoceanic
Tue 07:48:00 AM 45.4881 -45.5329 66° East 550 633 35,000  Level FlightAware Transoceanic
Tue 07:49:00 AM 45.5488 -45.3334 67° East 550 633 35,000  Level FlightAware Transoceanic
Tue 07:50:00 AM 45.5796 -45.2316 67° East 537 618 35,000  Level FlightAware Transoceanic
Tue 07:51:00 AM 45.6386 -45.0354 67° East 537 618 35,000  Level FlightAware Transoceanic
Tue 07:52:00 AM 45.6972 -44.8389 67° East 537 618 35,000  Level FlightAware Transoceanic
Tue 07:53:00 AM 45.7555 -44.6419 67° East 537 618 35,000  Level FlightAware Transoceanic
Tue 07:54:00 AM 45.8135 -44.4445 67° East 537 618 35,000  Level FlightAware Transoceanic
Tue 07:55:00 AM 45.8711 -44.2467 67° East 537 618 35,000  Level FlightAware Transoceanic
Tue 07:56:00 AM 45.9284 -44.0485 68° East 537 618 35,000  Level FlightAware Transoceanic
Tue 07:57:00 AM 45.9853 -43.8499 68° East 537 618 35,000  Level FlightAware Transoceanic
Tue 07:58:00 AM 46.0419 -43.6509 68° East 537 618 35,000  Level FlightAware Transoceanic
Tue 07:59:00 AM 46.0981 -43.4515 68° East 537 618 35,000  Level FlightAware Transoceanic
Tue 08:00:00 AM 46.1540 -43.2517 68° East 537 618 35,000  Level FlightAware Transoceanic
Tue 08:01:00 AM 46.2096 -43.0514 68° East 537 618 35,000  Level FlightAware Transoceanic
Tue 08:02:00 AM 46.2648 -42.8508 68° East 537 618 35,000  Level FlightAware Transoceanic
Tue 08:03:00 AM 46.3196 -42.6497 69° East 537 618 35,000  Level FlightAware Transoceanic
Tue 08:04:00 AM 46.3741 -42.4483 69° East 537 618 35,000  Level FlightAware Transoceanic
Tue 08:05:00 AM 46.4283 -42.2464 69° East 537 618 35,000  Level FlightAware Transoceanic
Tue 08:06:00 AM 46.4820 -42.0442 69° East 537 618 35,000  Level FlightAware Transoceanic
Tue 08:07:00 AM 46.5355 -41.8416 69° East 537 618 35,000  Level FlightAware Transoceanic
Tue 08:08:00 AM 46.5885 -41.6385 69° East 537 618 35,000  Level FlightAware Transoceanic
Tue 08:09:00 AM 46.6412 -41.4351 69° East 537 618 35,000  Level FlightAware Transoceanic
Tue 08:10:00 AM 46.6936 -41.2312 70° East 537 618 35,000  Level FlightAware Transoceanic
Tue 08:11:00 AM 46.7456 -41.0270 70° East 537 618 35,000  Level FlightAware Transoceanic
Tue 08:12:00 AM 46.7972 -40.8224 70° East 537 618 35,000  Level FlightAware Transoceanic
Tue 08:13:00 AM 46.8484 -40.6174 70° East 537 618 35,000  Level FlightAware Transoceanic
Tue 08:14:00 AM 46.8993 -40.4120 70° East 537 618 35,000  Level FlightAware Transoceanic
Tue 08:14:00 AM 47.0000 -40.0000 70° East 546 628 35,000  Level ETMS Enhanced Traffic Management System
Tue 08:15:00 AM 46.9498 -40.2062 70° East 537 618 35,000  Level FlightAware Transoceanic
Tue 08:16:00 AM 47.0000 -40.0000 70° East 537 618 35,000  Level FlightAware Transoceanic
Tue 08:17:00 AM 47.0525 -39.7912 70° East 537 618 35,000  Level FlightAware Transoceanic
Tue 08:18:00 AM 47.1046 -39.5820 70° East 537 618 35,000  Level FlightAware Transoceanic
Tue 08:19:00 AM 47.1563 -39.3724 70° East 537 618 35,000  Level FlightAware Transoceanic
Tue 08:20:00 AM 47.2077 -39.1624 70° East 537 618 35,000  Level FlightAware Transoceanic
Tue 08:21:00 AM 47.4092 -38.3183 71° East 546 628 35,000  Level FlightAware Transoceanic
Tue 08:22:00 AM 47.4586 -38.1063 71° East 546 628 35,000  Level FlightAware Transoceanic
Tue 08:23:00 AM 47.5076 -37.8939 71° East 546 628 35,000  Level FlightAware Transoceanic
Tue 08:24:00 AM 47.5562 -37.6811 71° East 546 628 35,000  Level FlightAware Transoceanic
Tue 08:25:00 AM 47.6045 -37.4679 72° East 546 628 35,000  Level FlightAware Transoceanic
Tue 08:26:00 AM 47.6523 -37.2543 72° East 546 628 35,000  Level FlightAware Transoceanic
Tue 08:27:00 AM 47.6997 -37.0403 72° East 546 628 35,000  Level FlightAware Transoceanic
Tue 08:28:00 AM 47.7468 -36.8259 72° East 546 628 35,000  Level FlightAware Transoceanic
Tue 08:29:00 AM 47.7934 -36.6112 72° East 546 628 35,000  Level FlightAware Transoceanic
Tue 08:30:00 AM 47.8396 -36.3960 72° East 546 628 35,000  Level FlightAware Transoceanic
Tue 08:31:00 AM 47.8855 -36.1805 72° East 546 628 35,000  Level FlightAware Transoceanic
Tue 08:32:00 AM 47.9309 -35.9646 73° East 546 628 35,000  Level FlightAware Transoceanic
Tue 08:33:00 AM 47.9759 -35.7483 73° East 546 628 35,000  Level FlightAware Transoceanic
Tue 08:34:00 AM 48.0205 -35.5316 73° East 546 628 35,000  Level FlightAware Transoceanic
Tue 08:35:00 AM 48.0648 -35.3146 73° East 546 628 35,000  Level FlightAware Transoceanic
Tue 08:36:00 AM 48.1086 -35.0972 73° East 546 628 35,000  Level FlightAware Transoceanic
Tue 08:37:00 AM 48.1520 -34.8794 73° East 546 628 35,000  Level FlightAware Transoceanic
Tue 08:38:00 AM 48.1949 -34.6613 74° East 546 628 35,000  Level FlightAware Transoceanic
Tue 08:39:00 AM 48.2375 -34.4427 74° East 546 628 35,000  Level FlightAware Transoceanic
Tue 08:40:00 AM 48.2796 -34.2239 74° East 546 628 35,000  Level FlightAware Transoceanic
Tue 08:41:00 AM 48.3214 -34.0047 74° East 546 628 35,000  Level FlightAware Transoceanic
Tue 08:42:00 AM 48.3627 -33.7851 74° East 546 628 35,000  Level FlightAware Transoceanic
Tue 08:43:00 AM 48.4036 -33.5651 74° East 546 628 35,000  Level FlightAware Transoceanic
Tue 08:44:00 AM 48.4441 -33.3448 75° East 546 628 35,000  Level FlightAware Transoceanic
Tue 08:45:00 AM 48.4841 -33.1242 75° East 546 628 35,000  Level FlightAware Transoceanic
Tue 08:46:00 AM 48.5238 -32.9032 75° East 546 628 35,000  Level FlightAware Transoceanic
Tue 08:47:00 AM 48.5630 -32.6819 75° East 546 628 35,000  Level FlightAware Transoceanic
Tue 08:48:00 AM 48.6017 -32.4602 75° East 546 628 35,000  Level FlightAware Transoceanic
Tue 08:49:00 AM 48.6401 -32.2382 75° East 546 628 35,000  Level FlightAware Transoceanic
Tue 08:50:00 AM 48.6780 -32.0158 76° East 546 628 35,000  Level FlightAware Transoceanic
Tue 08:51:00 AM 48.7155 -31.7931 76° East 546 628 35,000  Level FlightAware Transoceanic
Tue 08:52:00 AM 48.7526 -31.5701 76° East 546 628 35,000  Level FlightAware Transoceanic
Tue 08:53:00 AM 48.7893 -31.3468 76° East 546 628 35,000  Level FlightAware Transoceanic
Tue 08:54:00 AM 48.8255 -31.1231 76° East 546 628 35,000  Level FlightAware Transoceanic
Tue 08:55:00 AM 48.8613 -30.8991 76° East 546 628 35,000  Level FlightAware Transoceanic
Tue 08:56:00 AM 48.8966 -30.6748 77° East 546 628 35,000  Level FlightAware Transoceanic
Tue 08:57:00 AM 48.9315 -30.4502 77° East 546 628 35,000  Level FlightAware Transoceanic
Tue 08:58:00 AM 48.9660 -30.2252 77° East 546 628 35,000  Level FlightAware Transoceanic
Tue 08:59:00 AM 49.0000 -30.0000 86° East 546 628 35,000  Level FlightAware Transoceanic
Tue 09:00:00 AM 49.0961 -26.6688 89° East 546 628 35,000  Level FlightAware Transoceanic
Tue 09:01:00 AM 49.0961 -23.3312 91° East 546 628 35,000  Level FlightAware Transoceanic
Tue 09:02:00 AM 49.0891 -23.1108 93° East  Level FlightAware Approximate
Tue 09:03:00 AM 49.0816 -22.8906 93° East  Level FlightAware Approximate
Tue 09:04:00 AM 49.0737 -22.6704 93° East  Level FlightAware Approximate
Tue 09:04:00 AM 49.0000 -30.0000 86° East 524 603 35,000  Level ETMS Enhanced Traffic Management System
Tue 09:05:00 AM 49.0654 -22.4503 93° East  Level FlightAware Approximate
Tue 09:06:00 AM 49.0737 -22.6708 273° West  Level FlightAware Approximate
Tue 09:07:00 AM 49.0654 -22.4503 93° East  Level FlightAware Approximate
Tue 09:08:00 AM 49.0737 -22.6708 273° West  Level FlightAware Approximate
Tue 09:09:00 AM 49.0654 -22.4503 93° East  Level FlightAware Approximate
Tue 09:10:00 AM 49.0472 -28.6779 86° East  Level FlightAware Approximate
Tue 09:11:00 AM 49.0536 -28.4574 87° East  Level FlightAware Approximate
Tue 09:12:00 AM 49.0595 -28.2367 88° East  Level FlightAware Approximate
Tue 09:13:00 AM 49.0651 -28.0161 88° East  Level FlightAware Approximate
Tue 09:14:00 AM 49.0702 -27.7953 88° East  Level FlightAware Approximate
Tue 09:15:00 AM 49.0749 -27.5746 88° East  Level FlightAware Approximate
Tue 09:16:00 AM 49.0792 -27.3538 88° East  Level FlightAware Approximate
Tue 09:17:00 AM 49.0831 -27.1329 88° East  Level FlightAware Approximate
Tue 09:18:00 AM 49.0865 -26.9121 89° East  Level FlightAware Approximate
Tue 09:19:00 AM 49.0896 -26.6912 89° East  Level FlightAware Approximate
Tue 09:20:00 AM 49.0922 -26.4702 89° East  Level FlightAware Approximate
Tue 09:21:00 AM 49.0943 -26.2493 89° East  Level FlightAware Approximate
Tue 09:22:00 AM 49.0961 -26.0283 89° East  Level FlightAware Approximate
Tue 09:23:00 AM 49.0974 -25.8073 89° East  Level FlightAware Approximate
Tue 09:24:00 AM 49.0984 -25.5863 90° East  Level FlightAware Approximate
Tue 09:25:00 AM 49.0989 -25.3653 90° East  Level FlightAware Approximate
Tue 09:26:00 AM 49.0989 -25.1443 90° East  Level FlightAware Approximate
Tue 09:27:00 AM 49.0986 -24.9233 90° East  Level FlightAware Approximate
Tue 09:28:00 AM 49.0978 -24.7023 90° East  Level FlightAware Approximate
Tue 09:29:00 AM 49.0966 -24.4813 90° East  Level FlightAware Approximate
Tue 09:30:00 AM 49.0950 -24.2604 91° East  Level FlightAware Approximate
Tue 09:31:00 AM 49.0930 -24.0394 91° East  Level FlightAware Approximate
Tue 09:32:00 AM 49.0905 -23.8185 91° East  Level FlightAware Approximate
Tue 09:33:00 AM 49.0876 -23.5976 91° East  Level FlightAware Approximate
Tue 09:34:00 AM 49.0843 -23.3767 91° East  Level FlightAware Approximate
Tue 09:35:00 AM 49.0806 -23.1558 91° East  Level FlightAware Approximate
Tue 09:36:00 AM 49.0765 -22.9350 92° East  Level FlightAware Approximate
Tue 09:37:00 AM 49.0719 -22.7142 92° East  Level FlightAware Approximate
Tue 09:38:00 AM 49.0669 -22.4935 92° East  Level FlightAware Approximate
Tue 09:39:00 AM 49.0631 -22.2727 91° East  Level FlightAware Approximate
Tue 09:40:00 AM 49.0589 -22.0520 92° East  Level FlightAware Approximate
Tue 09:41:00 AM 49.0543 -21.8313 92° East  Level FlightAware Approximate
Tue 09:42:00 AM 49.0493 -21.6106 92° East  Level FlightAware Approximate
Tue 09:43:00 AM 49.0439 -21.3900 92° East  Level FlightAware Approximate
Tue 09:44:00 AM 49.0380 -21.1694 92° East  Level FlightAware Approximate
Tue 09:45:00 AM 49.0318 -20.9489 92° East  Level FlightAware Approximate
Tue 09:46:00 AM 49.0251 -20.7285 93° East  Level FlightAware Approximate
Tue 09:47:00 AM 49.0180 -20.5081 93° East  Level FlightAware Approximate
Tue 09:48:00 AM 49.0105 -20.2878 93° East  Level FlightAware Approximate
Tue 09:49:00 AM 49.0025 -20.0675 93° East  Level FlightAware Approximate
Tue 09:50:00 AM 49.0078 -19.8475 85° East  Level FlightAware Approximate
Tue 09:51:00 AM 49.0187 -19.6275 86° East  Level FlightAware Approximate
Tue 09:52:00 AM 49.0291 -19.4074 86° East  Level FlightAware Approximate
Tue 09:53:00 AM 49.0392 -19.1872 86° East  Level FlightAware Approximate
Tue 09:54:00 AM 49.0488 -18.9669 86° East  Level FlightAware Approximate
Tue 09:55:00 AM 49.0580 -18.7466 86° East  Level FlightAware Approximate
Tue 09:56:00 AM 49.0668 -18.5261 86° East  Level FlightAware Approximate
Tue 09:57:00 AM 49.0751 -18.3056 87° East  Level FlightAware Approximate
Tue 09:58:00 AM 49.0831 -18.0851 87° East  Level FlightAware Approximate
Tue 09:59:00 AM 49.0906 -17.8644 87° East  Level FlightAware Approximate
Tue 10:00:00 AM 49.0977 -17.6437 87° East  Level FlightAware Approximate
Tue 10:01:00 AM 49.1044 -17.4229 87° East  Level FlightAware Approximate
Tue 10:02:00 AM 49.1106 -17.2021 87° East  Level FlightAware Approximate
Tue 10:03:00 AM 49.1165 -16.9812 88° East  Level FlightAware Approximate
Tue 10:04:00 AM 49.1219 -16.7603 88° East  Level FlightAware Approximate
Tue 10:05:00 AM 49.1269 -16.5393 88° East  Level FlightAware Approximate
Tue 10:06:00 AM 49.1315 -16.3183 88° East  Level FlightAware Approximate
Tue 10:07:00 AM 49.1356 -16.0972 88° East  Level FlightAware Approximate
Tue 10:08:00 AM 49.1394 -15.8761 88° East  Level FlightAware Approximate
Tue 10:09:00 AM 49.1427 -15.6550 89° East  Level FlightAware Approximate
Tue 10:10:00 AM 49.1456 -15.4338 89° East  Level FlightAware Approximate
Tue 10:11:00 AM 49.1480 -15.2126 89° East  Level FlightAware Approximate
Tue 10:12:00 AM 49.1501 -14.9914 89° East  Level FlightAware Approximate
Tue 10:13:00 AM 49.1518 -14.7702 89° East  Level FlightAware Approximate
Tue 10:14:00 AM 49.1531 -14.5490 89° East  Level FlightAware Approximate
Tue 10:15:00 AM 49.1540 -14.3277 90° East  Level FlightAware Approximate
Tue 10:16:00 AM 49.1545 -14.1065 90° East  Level FlightAware Approximate
Tue 10:17:00 AM 49.1545 -13.8852 90° East  Level FlightAware Approximate
Tue 10:18:00 AM 49.1541 -13.6640 90° East  Level FlightAware Approximate
Tue 10:19:00 AM 49.1533 -13.4427 90° East  Level FlightAware Approximate
Tue 10:20:00 AM 49.1521 -13.2215 90° East  Level FlightAware Approximate
Tue 10:21:00 AM 49.1504 -13.0003 91° East  Level FlightAware Approximate
Tue 10:22:00 AM 49.1483 -12.7791 91° East  Level FlightAware Approximate
Tue 10:23:00 AM 49.1459 -12.5579 91° East  Level FlightAware Approximate
Tue 10:24:00 AM 49.1429 -12.3368 91° East  Level FlightAware Approximate
Tue 10:25:00 AM 49.1396 -12.1156 91° East  Level FlightAware Approximate
Tue 10:26:00 AM 49.1358 -11.8945 91° East  Level FlightAware Approximate
Tue 10:27:00 AM 49.1316 -11.6735 92° East  Level FlightAware Approximate
Tue 10:28:00 AM 49.1270 -11.4524 92° East  Level FlightAware Approximate
Tue 10:29:00 AM 49.1220 -11.2315 92° East  Level FlightAware Approximate
Tue 10:30:00 AM 49.1165 -11.0105 92° East  Level FlightAware Approximate
Tue 10:31:00 AM 49.1107 -10.7896 92° East  Level FlightAware Approximate
Tue 10:32:00 AM 49.1044 -10.5688 92° East  Level FlightAware Approximate
Tue 10:33:00 AM 49.0976 -10.3480 93° East  Level FlightAware Approximate
Tue 10:34:00 AM 49.0905 -10.1273 93° East  Level FlightAware Approximate
Tue 10:34:32 AM 48.7504 -8.9820 93° East 504 580 37,000  Level FlightAware UK
Tue 10:35:02 AM 48.7418 -8.8662 96° East 502 578 37,000  Level FlightAware UK
Tue 10:35:18 AM 48.7480 -8.8210 96° East 549 632 37,000  Level FlightAware ADS-B
Tue 10:35:54 AM 48.7390 -8.6860 96° East 549 632 37,000  Level FlightAware ADS-B
Tue 10:36:34 AM 48.7270 -8.5300 96° East 549 632 37,000  Level FlightAware ADS-B
Tue 10:36:38 AM 48.7133 -8.4994 96° East 504 580 37,000  Level FlightAware UK
Tue 10:37:07 AM 48.7180 -8.4080 96° East 548 631 37,000  Level FlightAware ADS-B
Tue 10:37:08 AM 48.7043 -8.3848 96° East 504 580 37,000  Level FlightAware UK
Tue 10:37:38 AM 48.6964 -8.2714 96° East 504 580 37,000  Level FlightAware UK
Tue 10:37:42 AM 48.7090 -8.2740 96° East 548 631 37,000  Level FlightAware ADS-B
Tue 10:38:17 AM 48.6950 -8.1430 99° East 544 626 37,000  Level FlightAware ADS-B
Tue 10:38:52 AM 48.6730 -8.0150 105° East 540 621 37,000  Level FlightAware ADS-B
Tue 10:39:27 AM 48.6500 -7.8920 106° East 542 624 37,000  Level FlightAware ADS-B
Tue 10:40:02 AM 48.6250 -7.7580 106° East 541 623 37,000  Level FlightAware ADS-B
Tue 10:40:37 AM 48.6010 -7.6320 106° East 540 621 37,000  Level FlightAware ADS-B
Tue 10:40:38 AM 48.5850 -7.6108 106° East 506 582 37,000  Level FlightAware UK
Tue 10:41:08 AM 48.5647 -7.5023 106° East 506 582 37,000  Level FlightAware UK
Tue 10:41:12 AM 48.5780 -7.5050 106° East 538 619 37,000  Level FlightAware ADS-B
Tue 10:41:48 AM 48.5540 -7.3790 106° East 539 620 37,000  Level FlightAware ADS-B
Tue 10:42:22 AM 48.5310 -7.2580 106° East 540 621 37,000  Level FlightAware ADS-B
Tue 10:42:56 AM 48.5060 -7.1250 106° East 540 621 37,000  Level FlightAware ADS-B
Tue 10:43:31 AM 48.4820 -6.9980 106° East 540 621 37,000  Level FlightAware ADS-B
Tue 10:44:09 AM 48.4404 -6.8526 106° East 502 578 37,000  Level FlightAware UK
Tue 10:44:09 AM 48.4550 -6.8610 106° East 539 620 37,000  Level FlightAware ADS-B
Tue 10:44:39 AM 48.4187 -6.7443 106° East 500 575 37,000  Level FlightAware UK
Tue 10:44:45 AM 48.4300 -6.7320 106° East 541 623 37,000  Level FlightAware ADS-B
Tue 10:45:17 AM 48.4070 -6.6150 106° East 542 624 37,000  Level FlightAware ADS-B
Tue 10:45:53 AM 48.3830 -6.4930 106° East 542 624 37,000  Level FlightAware ADS-B
Tue 10:46:26 AM 48.3580 -6.3700 107° East 541 623 37,000  Level FlightAware ADS-B
Tue 10:47:01 AM 48.3320 -6.2410 107° East 540 621 37,000  Level FlightAware ADS-B
Tue 10:47:37 AM 48.3060 -6.1130 107° East 538 619 37,000  Level FlightAware ADS-B
Tue 10:47:39 AM 48.2882 -6.0960 107° East 506 582 37,000  Level FlightAware UK
Tue 10:48:09 AM 48.2662 -5.9889 107° East 504 580 37,000  Level FlightAware UK
Tue 10:48:13 AM 48.2800 -5.9840 107° East 536 617 37,000  Level FlightAware ADS-B
Tue 10:48:45 AM 48.2570 -5.8700 107° East 535 616 37,000  Level FlightAware ADS-B
Tue 10:49:21 AM 48.2310 -5.7430 107° East 534 615 37,000  Level FlightAware ADS-B
Tue 10:49:57 AM 48.2050 -5.6170 107° East 534 615 37,000  Level FlightAware ADS-B
Tue 10:50:33 AM 48.1780 -5.4870 107° East 535 616 37,000  Level FlightAware ADS-B
Tue 10:51:09 AM 48.1520 -5.3620 107° East 535 616 37,000  Level FlightAware ADS-B
Tue 10:51:41 AM 48.1280 -5.2470 107° East 535 616 37,000  Level FlightAware ADS-B
Tue 10:52:17 AM 48.1010 -5.1230 108° East 534 615 37,000  Level FlightAware ADS-B
Tue 10:52:49 AM 48.0780 -5.0110 107° East 534 615 37,000  Level FlightAware ADS-B
Tue 10:53:29 AM 48.0470 -4.8660 108° East 535 616 37,000  Level FlightAware ADS-B
Tue 10:53:45 AM 48.0350 -4.8110 104° East 535 616 37,000  Level FlightAware ADS-B
Tue 10:56:00 AM 47.9605 -4.3373 104° East  Level Estimated
Tue 10:57:00 AM 47.9255 -4.1277 104° East  Level Estimated
Tue 10:58:00 AM 47.8901 -3.9184 104° East  Level Estimated
Tue 10:58:55 AM 47.7770 -3.7410 109° East 534 615 37,000  Level FlightAware ADS-B
Tue 10:59:00 AM 47.8543 -3.7094 104° East  Level Estimated
Tue 10:59:33 AM 47.7480 -3.6410 113° Southeast 531 611 37,000  Level FlightAware ADS-B
Tue 11:00:09 AM 47.6940 -3.5030 120° Southeast 531 611 37,000  Level FlightAware ADS-B
Tue 11:00:45 AM 47.6510 -3.3900 119° Southeast 532 612 37,000  Level FlightAware ADS-B
Tue 11:01:21 AM 47.6060 -3.2730 120° Southeast 532 612 37,000  Level FlightAware ADS-B
Tue 11:01:55 AM 47.5650 -3.1650 119° Southeast 533 613 37,000  Level FlightAware ADS-B
Tue 11:02:29 AM 47.5220 -3.0600 121° Southeast 534 615 37,000  Level FlightAware ADS-B
Tue 11:03:07 AM 47.4730 -2.9400 121° Southeast 535 616 37,000  Level FlightAware ADS-B
Tue 11:03:39 AM 47.4330 -2.8410 121° Southeast 535 616 37,000  Level FlightAware ADS-B
Tue 11:04:15 AM 47.3870 -2.7270 121° Southeast 537 618 37,000  Level FlightAware ADS-B
Tue 11:04:51 AM 47.3410 -2.6140 121° Southeast 536 617 37,000  Level FlightAware ADS-B
Tue 11:05:23 AM 47.2990 -2.5130 121° Southeast 536 617 37,000  Level FlightAware ADS-B
Tue 11:05:57 AM 47.2560 -2.4080 121° Southeast 537 618 37,000  Level FlightAware ADS-B
Tue 11:06:33 AM 47.2100 -2.2960 121° Southeast 537 618 37,000  Level FlightAware ADS-B
Tue 11:07:11 AM 47.1610 -2.1780 121° Southeast 537 618 37,000  Level FlightAware ADS-B
Tue 11:07:45 AM 47.1160 -2.0710 122° Southeast 536 617 37,000  Level FlightAware ADS-B
Tue 11:08:21 AM 47.0710 -1.9610 121° Southeast 537 618 37,000  Level FlightAware ADS-B
Tue 11:08:57 AM 47.0230 -1.8480 122° Southeast 536 617 37,000  Level FlightAware ADS-B
Tue 11:09:29 AM 46.9810 -1.7490 122° Southeast 536 617 37,000  Level FlightAware ADS-B
Tue 11:10:02 AM 46.9380 -1.6470 122° Southeast 535 616 37,000  Level FlightAware ADS-B
Tue 11:10:40 AM 46.8880 -1.5310 122° Southeast 534 615 37,000  Level FlightAware ADS-B
Tue 11:11:17 AM 46.8400 -1.4190 122° Southeast 534 615 37,000  Level FlightAware ADS-B
Tue 11:11:50 AM 46.7960 -1.3180 122° Southeast 533 613 37,000  Level FlightAware ADS-B
Tue 11:12:28 AM 46.7450 -1.2010 122° Southeast 533 613 37,000  Level FlightAware ADS-B
Tue 11:13:00 AM 46.7030 -1.1060 123° Southeast 533 613 37,000  Level FlightAware ADS-B
Tue 11:13:32 AM 46.6650 -1.0030 118° Southeast 530 610 37,000  Level FlightAware ADS-B
Tue 11:14:12 AM 46.6280 -0.8740 113° Southeast 530 610 37,000  Level FlightAware ADS-B
Tue 11:14:54 AM 46.5950 -0.7490 111° Southeast 529 609 37,000  Level FlightAware ADS-B
Tue 11:15:34 AM 46.5590 -0.6080 110° East 529 609 37,000  Level FlightAware ADS-B
Tue 11:16:14 AM 46.5230 -0.4730 111° Southeast 529 609 37,000  Level FlightAware ADS-B
Tue 11:16:54 AM 46.4900 -0.3510 111° Southeast 528 608 37,000  Level FlightAware ADS-B
Tue 11:17:24 AM 46.4600 -0.2420 112° Southeast 528 608 37,000  Level FlightAware ADS-B
Tue 11:18:09 AM 46.4190 -0.0930 112° Southeast 527 606 37,000  Level FlightAware ADS-B
Tue 11:18:42 AM 46.3970 -0.0140 112° Southeast 526 605 37,000  Level FlightAware ADS-B
Tue 11:19:13 AM 46.3650 0.1010 112° Southeast 526 605 37,000  Level FlightAware ADS-B
Tue 11:19:52 AM 46.3270 0.2380 112° Southeast 528 608 37,000  Level FlightAware ADS-B
Tue 11:20:27 AM 46.2960 0.3510 112° Southeast 528 608 37,000  Level FlightAware ADS-B
Tue 11:21:02 AM 46.2640 0.4670 112° Southeast 528 608 37,000  Level FlightAware ADS-B
Tue 11:21:37 AM 46.2310 0.5840 112° Southeast 528 608 37,000  Level FlightAware ADS-B
Tue 11:22:18 AM 46.1960 0.7070 112° Southeast 529 609 37,000  Level FlightAware ADS-B
Tue 11:22:47 AM 46.1670 0.8110 112° Southeast 528 608 37,000  Level FlightAware ADS-B
Tue 11:23:27 AM 46.1310 0.9370 112° Southeast 529 609 37,000  Level FlightAware ADS-B
Tue 11:24:07 AM 46.0920 1.0730 112° Southeast 531 611 37,000  Level FlightAware ADS-B
Tue 11:24:37 AM 46.0640 1.1700 113° Southeast 531 611 37,000  Level FlightAware ADS-B
Tue 11:25:10 AM 46.0400 1.2540 112° Southeast 531 611 37,000  Level FlightAware ADS-B
Tue 11:25:51 AM 46.0020 1.3850 113° Southeast 532 612 37,000  Level FlightAware ADS-B
Tue 11:26:30 AM 45.9610 1.5260 113° Southeast 531 611 37,000  Level FlightAware ADS-B
Tue 11:27:07 AM 45.9220 1.6610 113° Southeast 531 611 37,000  Level FlightAware ADS-B
Tue 11:27:32 AM 45.8990 1.7380 113° Southeast 531 611 37,000  Level FlightAware ADS-B
Tue 11:28:07 AM 45.8680 1.8410 113° Southeast 532 612 37,000  Level FlightAware ADS-B
Tue 11:28:46 AM 45.8240 1.9850 114° Southeast 531 611 37,000  Level FlightAware ADS-B
Tue 11:29:16 AM 45.7950 2.0820 113° Southeast 529 609 37,000  Level FlightAware ADS-B
Tue 11:29:56 AM 45.7560 2.2090 114° Southeast 527 606 37,000  Level FlightAware ADS-B
Tue 11:30:32 AM 45.7220 2.3230 113° Southeast 525 604 37,000  Level FlightAware ADS-B
Tue 11:31:08 AM 45.6870 2.4380 114° Southeast 524 603 37,000  Level FlightAware ADS-B
Tue 11:31:40 AM 45.6560 2.5390 114° Southeast 525 604 37,000  Level FlightAware ADS-B
Tue 11:32:16 AM 45.6210 2.6530 114° Southeast 526 605 37,000  Level FlightAware ADS-B
Tue 11:32:52 AM 45.5860 2.7700 113° Southeast 527 606 37,000  Level FlightAware ADS-B
Tue 11:33:34 AM 45.5470 2.8940 114° Southeast 527 606 37,000  Level FlightAware ADS-B
Tue 11:34:08 AM 45.5140 3.0010 114° Southeast 528 608 37,000  Level FlightAware ADS-B
Tue 11:34:42 AM 45.4770 3.1180 114° Southeast 527 606 37,000  Level FlightAware ADS-B
Tue 11:35:16 AM 45.4440 3.2210 115° Southeast 527 606 37,000  Level FlightAware ADS-B
Tue 11:35:54 AM 45.4050 3.3440 114° Southeast 527 606 37,000  Level FlightAware ADS-B
Tue 11:36:25 AM 45.3740 3.4420 114° Southeast 528 608 37,000  Level FlightAware ADS-B
Tue 11:37:04 AM 45.3340 3.5660 115° Southeast 529 609 37,000  Level FlightAware ADS-B
Tue 11:37:36 AM 45.3010 3.6690 114° Southeast 529 609 37,000  Level FlightAware ADS-B
Tue 11:38:13 AM 45.2700 3.7880 110° East 527 606 37,000  Level FlightAware ADS-B
Tue 11:38:47 AM 45.2460 3.9010 107° East 528 608 37,000  Level FlightAware ADS-B
Tue 11:39:09 AM 45.2240 3.9690 115° Southeast 531 611 37,000  Level FlightAware ADS-B
Tue 11:39:41 AM 45.1780 4.0620 125° Southeast 533 613 37,000  Level FlightAware ADS-B
Tue 11:40:17 AM 45.1290 4.1660 124° Southeast 534 615 37,000  Level FlightAware ADS-B
Tue 11:40:51 AM 45.0830 4.2670 123° Southeast 534 615 37,000  Level FlightAware ADS-B
Tue 11:41:23 AM 45.0400 4.3590 123° Southeast 535 616 37,000  Level FlightAware ADS-B
Tue 11:42:03 AM 44.9830 4.4740 125° Southeast 536 617 37,000  Level FlightAware ADS-B
Tue 11:42:41 AM 44.9290 4.5820 125° Southeast 536 617 37,000  Level FlightAware ADS-B
Tue 11:43:13 AM 44.8820 4.6730 126° Southeast 537 618 37,000  Level FlightAware ADS-B
Tue 11:43:47 AM 44.8320 4.7720 125° Southeast 538 619 37,000  Level FlightAware ADS-B
Tue 11:44:23 AM 44.7800 4.8730 126° Southeast 539 620 37,000  Level FlightAware ADS-B
Tue 11:44:57 AM 44.7320 4.9680 125° Southeast 540 621 37,000  Level FlightAware ADS-B
Tue 11:45:33 AM 44.6790 5.0720 126° Southeast 539 620 37,000  Level FlightAware ADS-B
Tue 11:46:07 AM 44.6290 5.1690 126° Southeast 540 621 37,000  Level FlightAware ADS-B
Tue 11:46:43 AM 44.5770 5.2710 126° Southeast 540 621 37,000  Level FlightAware ADS-B
Tue 11:47:19 AM 44.5280 5.3750 123° Southeast 538 619 37,000  Level FlightAware ADS-B
Tue 11:47:55 AM 44.4810 5.4810 122° Southeast 541 623 37,000  Level FlightAware ADS-B
Tue 11:48:27 AM 44.4380 5.5760 122° Southeast 541 623 37,000  Level FlightAware ADS-B
Tue 11:49:05 AM 44.3890 5.6840 122° Southeast 541 623 37,000  Level FlightAware ADS-B
Tue 11:49:39 AM 44.3430 5.7870 122° Southeast 542 624 37,000  Level FlightAware ADS-B
Tue 11:50:11 AM 44.2990 5.8830 123° Southeast 542 624 37,000  Level FlightAware ADS-B
Tue 11:50:51 AM 44.2470 5.9990 122° Southeast 540 621 37,000  Level FlightAware ADS-B
Tue 11:51:23 AM 44.2020 6.0970 123° Southeast 541 623 37,000  Level FlightAware ADS-B
Tue 11:51:59 AM 44.1530 6.2050 122° Southeast 541 623 37,000  Level FlightAware ADS-B
Tue 11:52:29 AM 44.1120 6.2930 123° Southeast 542 624 37,000  Level FlightAware ADS-B
Tue 11:53:09 AM 44.0590 6.4080 123° Southeast 542 624 37,000  Level FlightAware ADS-B
Tue 11:53:45 AM 44.0090 6.5150 123° Southeast 544 626 37,000  Level FlightAware ADS-B
Tue 11:54:17 AM 43.9670 6.6060 123° Southeast 544 626 37,000  Level FlightAware ADS-B
Tue 11:54:55 AM 43.9150 6.7170 123° Southeast 544 626 37,000  Level FlightAware ADS-B
Tue 11:55:29 AM 43.8690 6.8200 122° Southeast 546 628 37,000  Level FlightAware ADS-B
Tue 11:56:01 AM 43.8250 6.9140 123° Southeast 547 629 37,000  Level FlightAware ADS-B
Tue 11:56:39 AM 43.7720 7.0280 123° Southeast 548 631 37,000  Level FlightAware ADS-B
Tue 11:57:13 AM 43.7270 7.1260 122° Southeast 547 629 37,000  Level FlightAware ADS-B
Tue 11:57:51 AM 43.6750 7.2370 123° Southeast 547 629 37,000  Level FlightAware ADS-B
Tue 11:58:23 AM 43.6300 7.3320 123° Southeast 549 632 37,000  Level FlightAware ADS-B
Tue 11:58:59 AM 43.5810 7.4370 123° Southeast 550 633 37,000  Level FlightAware ADS-B
Tue 11:59:31 AM 43.5360 7.5320 123° Southeast 552 635 37,000  Level FlightAware ADS-B
Tue 12:00:14 PM 43.4760 7.6580 123° Southeast 551 634 37,000  Level FlightAware ADS-B
Tue 12:00:50 PM 43.4260 7.7630 123° Southeast 550 633 37,000  Level FlightAware ADS-B
Tue 12:01:26 PM 43.3780 7.8650 123° Southeast 550 633 37,000  Level FlightAware ADS-B
Tue 12:01:59 PM 43.3300 7.9640 124° Southeast 550 633 37,000  Level FlightAware ADS-B
Tue 12:02:33 PM 43.2810 8.0660 123° Southeast 550 633 37,000  Level FlightAware ADS-B
Tue 12:03:01 PM 43.2440 8.1440 123° Southeast 550 633 37,000  Level FlightAware ADS-B
Tue 12:03:36 PM 43.1940 8.2470 124° Southeast 551 634 37,000  Level FlightAware ADS-B
Tue 12:04:14 PM 43.1400 8.3590 123° Southeast 551 634 37,000  Level FlightAware ADS-B
Tue 12:04:49 PM 43.0910 8.4600 124° Southeast 551 634 37,000  Level FlightAware ADS-B
Tue 12:05:21 PM 43.0450 8.5540 124° Southeast 551 634 37,000  Level FlightAware ADS-B
Tue 12:05:57 PM 42.9940 8.6580 124° Southeast 551 634 37,000  Level FlightAware ADS-B
Tue 12:06:34 PM 42.9440 8.7600 124° Southeast 552 635 37,000  Level FlightAware ADS-B
Tue 12:07:10 PM 42.8910 8.8680 124° Southeast 551 634 37,000  Level FlightAware ADS-B
Tue 12:07:40 PM 42.8490 8.9530 124° Southeast 551 634 37,000  Level FlightAware ADS-B
Tue 12:08:18 PM 42.7960 9.0640 123° Southeast 547 629 37,000  Level FlightAware ADS-B
Tue 12:08:55 PM 42.7560 9.1810 115° Southeast 543 625 37,000  Level FlightAware ADS-B
Tue 12:09:31 PM 42.7200 9.2920 114° Southeast 543 625 37,000  Level FlightAware ADS-B
Tue 12:10:04 PM 42.6860 9.3910 115° Southeast 544 626 37,000  Level FlightAware ADS-B
Tue 12:10:34 PM 42.6530 9.4870 115° Southeast 543 625 37,000  Level FlightAware ADS-B
Tue 12:11:12 PM 42.6120 9.6040 115° Southeast 541 623 37,000  Level FlightAware ADS-B
Tue 12:11:50 PM 42.5730 9.7230 114° Southeast 543 625 37,000  Level FlightAware ADS-B
Tue 12:12:24 PM 42.5380 9.8280 114° Southeast 543 625 37,000  Level FlightAware ADS-B
Tue 12:12:57 PM 42.5030 9.9300 115° Southeast 543 625 37,000  Level FlightAware ADS-B
Tue 12:13:33 PM 42.4670 10.0370 114° Southeast 541 623 37,000  Level FlightAware ADS-B
Tue 12:14:12 PM 42.4250 10.1570 115° Southeast 535 616 37,000  Level FlightAware ADS-B
Tue 12:14:40 PM 42.3960 10.2430 115° Southeast 533 613 37,000  Level FlightAware ADS-B
Tue 12:15:19 PM 42.3570 10.3580 115° Southeast 529 609 37,000  Level FlightAware ADS-B
Tue 12:15:52 PM 42.3260 10.4620 112° Southeast 524 603 37,000  Level FlightAware ADS-B
Tue 12:16:31 PM 42.2940 10.5790 110° East 520 598 37,000  Level FlightAware ADS-B
Tue 12:16:59 PM 42.2690 10.6680 111° Southeast 519 597 37,000  Level FlightAware ADS-B
Tue 12:17:39 PM 42.2360 10.7880 110° East 516 594 37,000  Level FlightAware ADS-B
Tue 12:18:13 PM 42.2080 10.8900 110° East 516 594 37,000  Level FlightAware ADS-B
Tue 12:18:49 PM 42.1770 11.0000 111° Southeast 520 598 37,000  Level FlightAware ADS-B
Tue 12:19:27 PM 42.1270 11.1010 124° Southeast 535 616 37,000  Level FlightAware ADS-B
Tue 12:20:03 PM 42.0700 11.1960 129° Southeast 534 615 37,000  Level FlightAware ADS-B
Tue 12:20:35 PM 42.0210 11.2790 128° Southeast 535 616 37,000  Level FlightAware ADS-B
Tue 12:21:07 PM 41.9710 11.3610 129° Southeast 539 620 37,000  Level FlightAware ADS-B
Tue 12:21:43 PM 41.9200 11.4580 125° Southeast 533 613 37,000  Level FlightAware ADS-B
Tue 12:22:23 PM 41.8670 11.5720 122° Southeast 535 616 37,000  Level FlightAware ADS-B
Tue 12:22:55 PM 41.8250 11.6630 122° Southeast 537 618 37,000  Level FlightAware ADS-B
Tue 12:23:31 PM 41.7770 11.7620 123° Southeast 535 616 37,000  Level FlightAware ADS-B
Tue 12:24:07 PM 41.7260 11.8630 124° Southeast 532 612 37,000  Level FlightAware ADS-B
Tue 12:24:41 PM 41.6820 11.9550 123° Southeast 529 609 37,000  Level FlightAware ADS-B
Tue 12:25:17 PM 41.6340 12.0540 123° Southeast 526 605 37,000  Level FlightAware ADS-B
Tue 12:25:53 PM 41.5880 12.1510 122° Southeast 523 602 37,000  Level FlightAware ADS-B
Tue 12:26:25 PM 41.5460 12.2390 123° Southeast 523 602 37,000  Level FlightAware ADS-B
Tue 12:27:00 PM 41.4990 12.3360 123° Southeast 523 602 37,000  Level FlightAware ADS-B
Tue 12:27:35 PM 41.4540 12.4280 123° Southeast 523 602 37,000  Level FlightAware ADS-B
Tue 12:28:11 PM 41.4070 12.5270 122° Southeast 524 603 37,000  Level FlightAware ADS-B
Tue 12:28:47 PM 41.3590 12.6240 123° Southeast 523 602 37,000  Level FlightAware ADS-B
Tue 12:29:19 PM 41.3170 12.7120 122° Southeast 522 601 37,000  Level FlightAware ADS-B
Tue 12:29:55 PM 41.2710 12.8040 124° Southeast 521 600 37,000  Level FlightAware ADS-B
Tue 12:30:31 PM 41.2230 12.9030 123° Southeast 518 596 37,000  Level FlightAware ADS-B
Tue 12:31:05 PM 41.1790 12.9920 123° Southeast 516 594 37,000  Level FlightAware ADS-B
Tue 12:31:37 PM 41.1390 13.0770 122° Southeast 514 592 37,000  Level FlightAware ADS-B
Tue 12:32:09 PM 41.0970 13.1640 123° Southeast 513 590 37,000  Level FlightAware ADS-B
Tue 12:32:47 PM 41.0490 13.2630 123° Southeast 512 589 37,000  Level FlightAware ADS-B
Tue 12:33:24 PM 41.0010 13.3630 122° Southeast 512 589 37,000  Level FlightAware ADS-B
Tue 12:34:00 PM 40.9550 13.4580 123° Southeast 511 588 37,000  Level FlightAware ADS-B
Tue 12:34:36 PM 40.9090 13.5520 123° Southeast 512 589 37,000  Level FlightAware ADS-B
Tue 12:35:10 PM 40.8650 13.6420 123° Southeast 513 590 37,000  Level FlightAware ADS-B
Tue 12:35:46 PM 40.8190 13.7360 123° Southeast 514 592 37,000  Level FlightAware ADS-B
Tue 12:36:22 PM 40.7710 13.8320 123° Southeast 514 592 37,000  Level FlightAware ADS-B
Tue 12:36:54 PM 40.7310 13.9140 123° Southeast 514 592 37,000  Level FlightAware ADS-B
Tue 12:37:30 PM 40.6830 14.0090 124° Southeast 512 589 37,000  Level FlightAware ADS-B
Tue 12:38:07 PM 40.6360 14.1040 123° Southeast 510 587 37,000  Level FlightAware ADS-B
Tue 12:38:40 PM 40.5920 14.1910 124° Southeast 508 585 37,000  Level FlightAware ADS-B
Tue 12:39:12 PM 40.5510 14.2730 123° Southeast 503 579 37,000  Level FlightAware ADS-B
Tue 12:39:50 PM 40.5030 14.3690 123° Southeast 498 573 37,000  Level FlightAware ADS-B
Tue 12:40:26 PM 40.4570 14.4610 123° Southeast 495 570 37,000  Level FlightAware ADS-B
Tue 12:40:58 PM 40.4160 14.5410 124° Southeast 492 566 37,000  Level FlightAware ADS-B
Tue 12:41:34 PM 40.3720 14.6290 123° Southeast 489 563 37,000  Level FlightAware ADS-B
Tue 12:42:10 PM 40.3270 14.7170 124° Southeast 488 562 37,000  Level FlightAware ADS-B
Tue 12:42:46 PM 40.2820 14.8050 124° Southeast 488 562 37,000  Level FlightAware ADS-B
Tue 12:43:20 PM 40.2380 14.8900 124° Southeast 490 564 37,000  Level FlightAware ADS-B
Tue 12:43:56 PM 40.1940 14.9760 124° Southeast 495 570 37,000  Level FlightAware ADS-B
Tue 12:44:30 PM 40.1490 15.0650 123° Southeast 500 575 37,000  Level FlightAware ADS-B
Tue 12:45:04 PM 40.1080 15.1490 123° Southeast 504 580 37,000  Level FlightAware ADS-B
Tue 12:45:41 PM 40.0710 15.2510 115° Southeast 507 583 37,000  Level FlightAware ADS-B
Tue 12:46:14 PM 40.0360 15.3470 115° Southeast 508 585 37,000  Level FlightAware ADS-B
Tue 12:46:50 PM 39.9990 15.4440 116° Southeast 507 583 37,000  Level FlightAware ADS-B
Tue 12:47:26 PM 39.9620 15.5370 117° Southeast 505 581 37,000  Level FlightAware ADS-B
Tue 12:48:02 PM 39.9220 15.6390 117° Southeast 503 579 37,000  Level FlightAware ADS-B
Tue 12:48:38 PM 39.8830 15.7350 118° Southeast 502 578 37,000  Level FlightAware ADS-B
Tue 12:49:11 PM 39.8480 15.8220 118° Southeast 501 577 37,000  Level FlightAware ADS-B
Tue 12:49:44 PM 39.8120 15.9120 117° Southeast 502 578 37,000  Level FlightAware ADS-B
Tue 12:50:20 PM 39.7740 16.0080 117° Southeast 506 582 37,000  Level FlightAware ADS-B
Tue 12:50:52 PM 39.7410 16.0910 117° Southeast 507 583 37,000  Level FlightAware ADS-B
Tue 12:51:26 PM 39.7030 16.1870 117° Southeast 507 583 37,000  Level FlightAware ADS-B
Tue 12:52:00 PM 39.6670 16.2800 117° Southeast 506 582 37,000  Level FlightAware ADS-B
Tue 12:52:34 PM 39.6310 16.3710 117° Southeast 504 580 37,000  Level FlightAware ADS-B
Tue 12:53:12 PM 39.5900 16.4750 117° Southeast 505 581 37,000  Level FlightAware ADS-B
Tue 12:53:44 PM 39.5570 16.5560 118° Southeast 506 582 37,000  Level FlightAware ADS-B
Tue 12:54:20 PM 39.5160 16.6580 117° Southeast 506 582 37,000  Level FlightAware ADS-B
Tue 12:54:50 PM 39.4850 16.7370 117° Southeast 507 583 37,000  Level FlightAware ADS-B
Tue 12:55:26 PM 39.4460 16.8330 118° Southeast 507 583 37,000  Level FlightAware ADS-B
Tue 12:56:04 PM 39.4060 16.9330 117° Southeast 507 583 37,000  Level FlightAware ADS-B
Tue 12:56:40 PM 39.3650 17.0330 118° Southeast 508 585 37,000  Level FlightAware ADS-B
Tue 12:57:20 PM 39.3210 17.1410 118° Southeast 508 585 37,000  Level FlightAware ADS-B
Tue 12:57:56 PM 39.2820 17.2370 118° Southeast 508 585 37,000  Level FlightAware ADS-B
Tue 12:58:34 PM 39.2410 17.3400 117° Southeast 506 582 37,000  Level FlightAware ADS-B
Tue 12:59:06 PM 39.2060 17.4250 118° Southeast 505 581 37,000  Level FlightAware ADS-B
Tue 12:59:42 PM 39.1670 17.5200 118° Southeast 505 581 37,000  Level FlightAware ADS-B
Tue 01:00:18 PM 39.1280 17.6140 118° Southeast 506 582 37,000  Level FlightAware ADS-B
Tue 01:00:50 PM 39.0910 17.7030 118° Southeast 507 583 37,000  Level FlightAware ADS-B
Tue 01:01:26 PM 39.0510 17.7980 118° Southeast 506 582 37,000  Level FlightAware ADS-B
Tue 01:02:02 PM 39.0120 17.8920 118° Southeast 506 582 37,000  Level FlightAware ADS-B
Tue 01:02:34 PM 38.9770 17.9770 118° Southeast 505 581 37,000  Level FlightAware ADS-B
Tue 01:03:11 PM 38.9360 18.0740 118° Southeast 506 582 37,000  Level FlightAware ADS-B
Tue 01:03:47 PM 38.8950 18.1710 118° Southeast 504 580 37,000  Level FlightAware ADS-B
Tue 01:04:23 PM 38.8560 18.2640 118° Southeast 502 578 37,000  Level FlightAware ADS-B
Tue 01:04:55 PM 38.8210 18.3480 118° Southeast 502 578 37,000  Level FlightAware ADS-B
Tue 01:05:27 PM 38.7840 18.4330 119° Southeast 502 578 37,000  Level FlightAware ADS-B
Tue 01:06:03 PM 38.7460 18.5240 118° Southeast 502 578 37,000  Level FlightAware ADS-B
Tue 01:06:41 PM 38.7030 18.6250 119° Southeast 504 580 37,000  Level FlightAware ADS-B
Tue 01:07:17 PM 38.6630 18.7190 119° Southeast 506 582 37,000  Level FlightAware ADS-B
Tue 01:07:53 PM 38.6220 18.8140 119° Southeast 507 583 37,000  Level FlightAware ADS-B
Tue 01:08:29 PM 38.5970 18.8720 119° Southeast 508 585 37,000  Level FlightAware ADS-B
Tue 01:09:15 PM 38.5490 18.9850 118° Southeast 508 585 37,000  Level FlightAware ADS-B
Tue 01:09:51 PM 38.5150 19.0660 118° Southeast 508 585 37,000  Level FlightAware ADS-B
Tue 01:10:25 PM 38.4840 19.1430 117° Southeast 508 585 37,000  Level FlightAware ADS-B
Tue 01:10:55 PM 38.4670 19.2860 99° East 521 600 37,000  Level FlightAware ADS-B
Tue 01:11:37 PM 38.4300 19.4070 111° Southeast 521 600 37,000  Level FlightAware ADS-B
Tue 01:12:17 PM 38.3960 19.5200 111° Southeast 523 602 37,000  Level FlightAware ADS-B
Tue 01:12:51 PM 38.3670 19.6160 111° Southeast 525 604 37,000  Level FlightAware ADS-B
Tue 01:13:23 PM 38.3360 19.7180 111° Southeast 527 606 37,000  Level FlightAware ADS-B
Tue 01:14:17 PM 38.2880 19.8760 111° Southeast 529 609 37,000  Level FlightAware ADS-B
Tue 01:14:49 PM 38.2610 19.9660 111° Southeast 530 610 37,000  Level FlightAware ADS-B
Tue 01:15:21 PM 38.2310 20.0670 111° Southeast 531 611 37,000  Level FlightAware ADS-B
Tue 01:16:14 PM 38.1920 20.1940 111° Southeast 531 611 37,000  Level FlightAware ADS-B
Tue 01:16:50 PM 38.1650 20.2840 111° Southeast 531 611 37,000  Level FlightAware ADS-B
Tue 01:17:26 PM 38.1380 20.3730 111° Southeast 531 611 37,000  Level FlightAware ADS-B
Tue 01:18:02 PM 38.1110 20.4620 111° Southeast 531 611 37,000  Level FlightAware ADS-B
Tue 01:18:38 PM 38.0840 20.5510 111° Southeast 531 611 37,000  Level FlightAware ADS-B
Tue 01:19:16 PM 38.0560 20.6450 111° Southeast 531 611 37,000  Level FlightAware ADS-B
Tue 01:19:52 PM 38.0290 20.7340 111° Southeast 531 611 37,000  Level FlightAware ADS-B
Tue 01:20:28 PM 38.0020 20.8230 111° Southeast 531 611 37,000  Level FlightAware ADS-B
Tue 01:20:58 PM 37.9160 21.0730 113° Southeast 533 613 37,000  Level FlightAware ADS-B
Tue 01:21:44 PM 37.8750 21.2030 112° Southeast 534 615 37,000  Level FlightAware ADS-B
Tue 01:22:22 PM 37.8450 21.3010 111° Southeast 534 615 37,000  Level FlightAware ADS-B
Tue 01:22:52 PM 37.8110 21.4010 113° Southeast 534 615 37,000  Level FlightAware ADS-B
Tue 01:23:30 PM 37.7760 21.5110 112° Southeast 533 613 37,000  Level FlightAware ADS-B
Tue 01:24:06 PM 37.7430 21.6150 112° Southeast 534 615 37,000  Level FlightAware ADS-B
Tue 01:24:52 PM 37.6990 21.7500 112° Southeast 534 615 37,000  Level FlightAware ADS-B
Tue 01:25:28 PM 37.6670 21.8480 112° Southeast 534 615 37,000  Level FlightAware ADS-B
Tue 01:26:02 PM 37.6330 21.9500 113° Southeast 534 615 37,000  Level FlightAware ADS-B
Tue 01:26:46 PM 37.5940 22.0680 113° Southeast 532 612 37,000  Level FlightAware ADS-B
Tue 01:27:26 PM 37.5560 22.1830 113° Southeast 532 612 37,000  Level FlightAware ADS-B
Tue 01:27:59 PM 37.5240 22.2810 112° Southeast 532 612 37,000  Level FlightAware ADS-B
Tue 01:28:36 PM 37.4940 22.3710 113° Southeast 532 612 37,000  Level FlightAware ADS-B
Tue 01:29:12 PM 37.4520 22.4970 113° Southeast 533 613 37,000  Level FlightAware ADS-B
Tue 01:29:44 PM 37.4260 22.5780 112° Southeast 533 613 37,000  Level FlightAware ADS-B
Tue 01:30:25 PM 37.3850 22.7040 112° Southeast 536 617 37,000  Level FlightAware ADS-B
Tue 01:31:05 PM 37.3450 22.8220 113° Southeast 537 618 37,000  Level FlightAware ADS-B
Tue 01:31:41 PM 37.3100 22.9280 113° Southeast 536 617 37,000  Level FlightAware ADS-B
Tue 01:32:13 PM 37.2790 23.0200 113° Southeast 536 617 37,000  Level FlightAware ADS-B
Tue 01:32:46 PM 37.2500 23.1070 113° Southeast 536 617 37,000  Level FlightAware ADS-B
Tue 01:33:21 PM 37.2140 23.2140 113° Southeast 535 616 37,000  Level FlightAware ADS-B
Tue 01:34:01 PM 37.1770 23.3210 113° Southeast 535 616 37,000  Level FlightAware ADS-B
Tue 01:34:33 PM 37.1450 23.4150 113° Southeast 534 615 37,000  Level FlightAware ADS-B
Tue 01:35:11 PM 37.1080 23.5220 113° Southeast 533 613 37,000  Level FlightAware ADS-B
Tue 01:35:45 PM 37.0740 23.6200 113° Southeast 533 613 37,000  Level FlightAware ADS-B
Tue 01:36:21 PM 37.0380 23.7240 113° Southeast 532 612 37,000  Level FlightAware ADS-B
Tue 01:36:53 PM 37.0060 23.8160 114° Southeast 532 612 37,000  Level FlightAware ADS-B
Tue 01:37:29 PM 36.9710 23.9180 113° Southeast 532 612 37,000  Level FlightAware ADS-B
Tue 01:38:06 PM 36.9360 24.0200 113° Southeast 532 612 37,000  Level FlightAware ADS-B
Tue 01:38:38 PM 36.9030 24.1130 114° Southeast 532 612 37,000  Level FlightAware ADS-B
Tue 01:39:14 PM 36.8690 24.2130 113° Southeast 532 612 37,000  Level FlightAware ADS-B
Tue 01:39:51 PM 36.8330 24.3140 114° Southeast 534 615 37,000  Level FlightAware ADS-B
Tue 01:40:24 PM 36.8000 24.4110 113° Southeast 534 615 37,000  Level FlightAware ADS-B
Tue 01:41:00 PM 36.7640 24.5140 114° Southeast 535 616 37,000  Level FlightAware ADS-B
Tue 01:41:37 PM 36.7280 24.6160 114° Southeast 534 615 37,000  Level FlightAware ADS-B
Tue 01:42:10 PM 36.6940 24.7080 115° Southeast 534 615 37,000  Level FlightAware ADS-B
Tue 01:42:44 PM 36.6580 24.8040 115° Southeast 534 615 37,000  Level FlightAware ADS-B
Tue 01:43:20 PM 36.6200 24.9040 115° Southeast 534 615 37,000  Level FlightAware ADS-B
Tue 01:43:54 PM 36.5840 25.0000 115° Southeast 535 616 37,000  Level FlightAware ADS-B
Tue 01:44:32 PM 36.5450 25.1010 116° Southeast 535 616 37,000  Level FlightAware ADS-B
Tue 01:45:02 PM 36.5130 25.1880 115° Southeast 535 616 37,000  Level FlightAware ADS-B
Tue 01:45:42 PM 36.4710 25.2990 115° Southeast 535 616 37,000  Level FlightAware ADS-B
Tue 01:46:14 PM 36.4370 25.3890 115° Southeast 535 616 37,000  Level FlightAware ADS-B
Tue 01:46:50 PM 36.4000 25.4880 115° Southeast 536 617 37,000  Level FlightAware ADS-B
Tue 01:47:26 PM 36.3630 25.5890 114° Southeast 536 617 37,000  Level FlightAware ADS-B
Tue 01:47:58 PM 36.3290 25.6780 115° Southeast 535 616 37,000  Level FlightAware ADS-B
Tue 01:48:36 PM 36.2890 25.7850 115° Southeast 535 616 37,000  Level FlightAware ADS-B
Tue 01:49:12 PM 36.2520 25.8840 115° Southeast 535 616 37,000  Level FlightAware ADS-B
Tue 01:49:44 PM 36.2180 25.9740 115° Southeast 535 616 37,000  Level FlightAware ADS-B
Tue 01:50:20 PM 36.1800 26.0730 115° Southeast 535 616 37,000  Level FlightAware ADS-B
Tue 01:50:56 PM 36.1420 26.1730 115° Southeast 535 616 37,000  Level FlightAware ADS-B
Tue 01:51:28 PM 36.1080 26.2630 115° Southeast 536 617 37,000  Level FlightAware ADS-B
Tue 01:52:00 PM 36.0740 26.3520 115° Southeast 537 618 37,000  Level FlightAware ADS-B
Tue 01:52:42 PM 36.0290 26.4680 116° Southeast 537 618 37,000  Level FlightAware ADS-B
Tue 01:53:14 PM 35.9960 26.5560 115° Southeast 537 618 37,000  Level FlightAware ADS-B
Tue 01:53:50 PM 35.9570 26.6560 116° Southeast 538 619 37,000  Level FlightAware ADS-B
Tue 01:54:24 PM 35.9200 26.7500 116° Southeast 538 619 37,000  Level FlightAware ADS-B
Tue 01:55:06 PM 35.8820 26.8520 115° Southeast 538 619 37,000  Level FlightAware ADS-B
Tue 01:55:41 PM 35.8500 26.9350 115° Southeast 538 619 37,000  Level FlightAware ADS-B
Tue 01:58:00 PM 35.6921 27.3036 118° Southeast  Level FlightAware Approximate
Tue 01:59:00 PM 35.6236 27.4622 118° Southeast  Level FlightAware Approximate
Tue 02:00:00 PM 35.5549 27.6205 118° Southeast  Level FlightAware Approximate
Tue 02:01:00 PM 35.4860 27.7786 118° Southeast  Level FlightAware Approximate
Tue 02:02:00 PM 35.4169 27.9364 118° Southeast  Level FlightAware Approximate
Tue 02:02:54 PM 35.3710 28.1440 118° Southeast 531 611 37,000  Level FlightAware ADS-B
Tue 02:03:00 PM 35.3473 28.0945 118° Southeast  Level FlightAware Approximate
Tue 02:03:38 PM 35.3230 28.2610 117° Southeast 530 610 37,000  Level FlightAware ADS-B
Tue 02:04:14 PM 35.2830 28.3600 116° Southeast 530 610 37,000  Level FlightAware ADS-B
Tue 02:04:46 PM 35.2490 28.4450 116° Southeast 531 611 37,000  Level FlightAware ADS-B
Tue 02:05:20 PM 35.2110 28.5380 117° Southeast 531 611 37,000  Level FlightAware ADS-B
Tue 02:06:05 PM 35.1670 28.6460 116° Southeast 531 611 37,000  Level FlightAware ADS-B
Tue 02:06:47 PM 35.1200 28.7610 117° Southeast 527 606 37,000  Level FlightAware ADS-B
Tue 02:07:26 PM 35.0860 28.8500 115° Southeast 527 606 37,000  Level FlightAware ADS-B
Tue 02:08:02 PM 35.0350 28.9670 118° Southeast 526 605 37,000  Level FlightAware ADS-B
Tue 02:08:46 PM 34.9950 29.0690 116° Southeast 526 605 37,000  Level FlightAware ADS-B
Tue 02:09:19 PM 34.9490 29.1740 118° Southeast 524 603 37,000  Level FlightAware ADS-B
Tue 02:09:53 PM 34.9130 29.2600 117° Southeast 524 603 37,000  Level FlightAware ADS-B
Tue 02:10:34 PM 34.8740 29.3560 116° Southeast 524 603 37,000  Level FlightAware ADS-B
Tue 02:11:11 PM 34.8410 29.4400 116° Southeast 524 603 37,000  Level FlightAware ADS-B
Tue 02:11:44 PM 34.7890 29.5560 119° Southeast 526 605 37,000  Level FlightAware ADS-B
Tue 02:12:23 PM 34.7450 29.6600 117° Southeast 526 605 37,000  Level FlightAware ADS-B
Tue 02:12:54 PM 34.7120 29.7380 117° Southeast 527 606 37,000  Level FlightAware ADS-B
Tue 02:13:28 PM 34.6750 29.8240 118° Southeast 528 608 37,000  Level FlightAware ADS-B
Tue 02:14:05 PM 34.6400 29.9060 117° Southeast 528 608 37,000  Level FlightAware ADS-B
Tue 02:14:41 PM 34.6060 29.9870 117° Southeast 528 608 37,000  Level FlightAware ADS-B
Tue 02:15:14 PM 34.5510 30.0980 121° Southeast 887 1021 37,000  Level FlightAware ADS-B
Tue 02:16:00 PM 34.4960 30.2130 120° Southeast 522 601 37,000  Level FlightAware ADS-B
Tue 02:16:34 PM 34.4520 30.3040 120° Southeast 523 602 37,000  Level FlightAware ADS-B
Tue 02:17:08 PM 34.4080 30.3960 120° Southeast 523 602 37,000  Level FlightAware ADS-B
Tue 02:17:44 PM 34.3650 30.4870 120° Southeast 525 604 37,000  Level FlightAware ADS-B
Tue 02:18:28 PM 34.3130 30.5960 120° Southeast 521 600 37,000  Level FlightAware ADS-B
Tue 02:19:04 PM 34.2670 30.6910 120° Southeast 520 598 37,000  Level FlightAware ADS-B
Tue 02:19:34 PM 34.2300 30.7670 120° Southeast 519 597 37,000  Level FlightAware ADS-B
Tue 02:20:10 PM 34.1900 30.8510 120° Southeast 520 598 37,000  Level FlightAware ADS-B
Tue 02:20:50 PM 34.1370 30.9600 120° Southeast 519 597 37,000  Level FlightAware ADS-B
Tue 02:21:21 PM 34.0990 31.0390 120° Southeast 517 595 37,000  Level FlightAware ADS-B
Tue 02:22:07 PM 34.0440 31.1520 120° Southeast 517 595 37,000  Level FlightAware ADS-B
Tue 02:22:37 PM 34.0060 31.2300 120° Southeast 516 594 37,000  Level FlightAware ADS-B
Tue 02:23:11 PM 33.9640 31.3160 120° Southeast 519 597 37,000  Level FlightAware ADS-B
Tue 02:23:47 PM 33.9240 31.3970 121° Southeast 519 597 37,000  Level FlightAware ADS-B
Tue 02:24:27 PM 33.8720 31.5050 120° Southeast 516 594 37,000  Level FlightAware ADS-B
Tue 02:24:58 PM 33.8350 31.5810 120° Southeast 517 595 37,000  Level FlightAware ADS-B
Tue 02:25:34 PM 33.7910 31.6700 121° Southeast 517 595 37,000  Level FlightAware ADS-B
Tue 02:26:09 PM 33.7470 31.7570 121° Southeast 518 596 37,000  Level FlightAware ADS-B
Tue 02:26:43 PM 33.7050 31.8430 120° Southeast 518 596 37,000  Level FlightAware ADS-B
Tue 02:27:19 PM 33.6610 31.9310 121° Southeast 518 596 37,000  Level FlightAware ADS-B
Tue 02:27:54 PM 33.6180 32.0170 121° Southeast 518 596 37,000  Level FlightAware ADS-B
Tue 02:28:30 PM 33.5730 32.1070 121° Southeast 518 596 37,000  Level FlightAware ADS-B
Tue 02:29:05 PM 33.5310 32.1910 121° Southeast 518 596 37,000  Level FlightAware ADS-B
Tue 02:29:45 PM 33.4780 32.2950 121° Southeast 523 602 37,000  Level FlightAware ADS-B
Tue 02:30:30 PM 33.4210 32.4070 121° Southeast 525 604 37,000 -79 Level FlightAware ADS-B
Tue 02:31:01 PM 33.3830 32.4820 121° Southeast 523 602 36,900 -930 Descending FlightAware ADS-B
Tue 02:31:41 PM 33.3310 32.5830 122° Southeast 526 605 35,900 -1,421 Descending FlightAware ADS-B
Tue 02:32:17 PM 33.2870 32.6700 121° Southeast 528 608 35,100 -1,606 Descending FlightAware ADS-B
Tue 02:32:52 PM 33.2420 32.7570 122° Southeast 523 602 34,000 -2,366 Descending FlightAware ADS-B
Tue 02:33:28 PM 33.1970 32.8460 121° Southeast 513 590 32,300 -2,519 Descending FlightAware ADS-B
Tue 02:34:13 PM 33.1420 32.9520 122° Southeast 502 578 30,600 -2,077 Descending FlightAware ADS-B
Tue 02:34:46 PM 33.0980 33.0350 122° Southeast 503 579 29,600 -1,543 Descending FlightAware ADS-B
Tue 02:35:23 PM 33.1230 32.9870 302° West 503 579 28,800 -1,541 Descending FlightAware ADS-B
Tue 02:36:00 PM 33.0110 33.2060 121° Southeast 495 570 27,700 -1,676 Descending FlightAware ADS-B
Tue 02:36:31 PM 32.9730 33.2780 122° Southeast 492 566 26,900 -1,429 Descending FlightAware ADS-B
Tue 02:37:03 PM 32.9350 33.3500 122° Southeast 487 560 26,200 -1,417 Descending FlightAware ADS-B
Tue 02:37:43 PM 32.8860 33.4430 122° Southeast 482 555 25,200 -1,644 Descending FlightAware ADS-B
Tue 02:38:16 PM 32.8480 33.5170 121° Southeast 474 545 24,200 -2,261 Descending FlightAware ADS-B
Tue 02:38:52 PM 32.8070 33.5950 122° Southeast 465 535 22,600 -2,630 Descending FlightAware ADS-B
Tue 02:39:29 PM 32.7650 33.6710 123° Southeast 453 521 21,000 -3,130 Descending FlightAware ADS-B
Tue 02:40:01 PM 32.7180 33.7310 133° Southeast 454 522 19,000 -3,391 Descending FlightAware ADS-B
Tue 02:40:38 PM 32.6580 33.7890 141° Southeast 443 510 17,100 -2,838 Descending FlightAware ADS-B
Tue 02:41:15 PM 32.5990 33.8470 140° Southeast 429 494 15,500 -2,294 Descending FlightAware ADS-B
Tue 02:41:46 PM 32.5530 33.8920 140° Southeast 413 475 14,500 -2,294 Descending FlightAware ADS-B
Tue 02:42:23 PM 32.4980 33.9440 141° Southeast 403 464 12,900 -2,435 Descending FlightAware ADS-B
Tue 02:42:55 PM 32.4540 33.9870 140° Southeast 397 457 11,700 -2,314 Descending FlightAware ADS-B
Tue 02:43:33 PM 32.3980 34.0390 142° Southeast 388 447 10,200 -2,421 Descending FlightAware ADS-B
Tue 02:43:52 PM 32.3700 34.0640 143° Southeast 383 441 9,400 -2,308 Descending FlightAware ADS-B
Tue 02:44:12 PM 32.3430 34.0890 142° Southeast 378 435 8,700 -1,814 Descending FlightAware ADS-B
Tue 02:44:35 PM 32.3210 34.1100 141° Southeast 376 433 8,100 -600 Descending FlightAware ADS-B
Tue 02:45:12 PM 32.2780 34.1510 141° Southeast 376 433 8,100 -2,441 Level FlightAware ADS-B
Tue 02:45:34 PM 32.2390 34.1920 138° Southeast 367 422 5,700 -5,250 Descending FlightAware ADS-B
Tue 02:45:44 PM 32.2270 34.2120 125° Southeast 365 420 5,300 -3,200 Descending FlightAware ADS-B
Tue 02:46:04 PM 32.2090 34.2490 120° Southeast 374 430 4,100 -1,585 Descending FlightAware ADS-B
Tue 02:46:37 PM 32.1880 34.2910 121° Southeast 377 434 3,900 -1,304 Descending FlightAware ADS-B
Tue 02:46:50 PM 32.1690 34.3250 123° Southeast 346 398 3,100 -1,556 Descending FlightAware ADS-B
Tue 02:47:04 PM 32.1600 34.3420 122° Southeast 327 376 3,200 353 Climbing FlightAware ADS-B
Tue 02:47:24 PM 32.1420 34.3730 124° Southeast 299 344 3,300 120 Climbing FlightAware ADS-B
Tue 02:47:54 PM 32.1200 34.4110 124° Southeast 268 308 3,300 -133 Level FlightAware ADS-B
Tue 02:48:09 PM 32.1090 34.4260 131° Southeast 266 306 3,200 -150 Descending FlightAware ADS-B
Tue 02:48:34 PM 32.0910 34.4530 128° Southeast 247 284 3,200  Level FlightAware ADS-B
Tue 02:48:45 PM 32.0830 34.4660 126° Southeast 243 280 3,200  Level FlightAware ADS-B
Tue 02:49:05 PM 32.0700 34.4870 126° Southeast 241 277 3,200  Level FlightAware ADS-B
Tue 02:49:24 PM 32.0570 34.5110 123° Southeast 233 268 3,200  Level FlightAware ADS-B
Tue 02:49:34 PM 32.0540 34.5220 108° East 230 265 3,200  Level FlightAware ADS-B
Tue 02:49:54 PM 32.0470 34.5460 109° East 231 266 3,200  Level FlightAware ADS-B
Tue 02:50:14 PM 32.0410 34.5690 107° East 230 265 3,200  Level FlightAware ADS-B
Tue 02:50:29 PM 32.0360 34.5870 108° East 230 265 3,200  Level FlightAware ADS-B
Tue 02:50:54 PM 32.0260 34.6190 110° East 232 267 3,200 -171 Level FlightAware ADS-B
Tue 02:51:04 PM 32.0230 34.6300 108° East 225 259 3,100 -857 Descending FlightAware ADS-B
Tue 02:51:29 PM 32.0150 34.6570 109° East 223 257 2,700 -833 Descending FlightAware ADS-B
Tue 02:51:40 PM 32.0130 34.6700 100° East 218 251 2,600 -167 Descending FlightAware ADS-B
Tue 02:52:05 PM 32.0150 34.6950 85° East 210 242 2,600 -409 Level FlightAware ADS-B
Tue 02:52:24 PM 32.0190 34.7200 79° East 212 244 2,300 -955 Descending FlightAware ADS-B
Tue 02:52:49 PM 32.0230 34.7510 81° East 206 237 1,900 -900 Descending FlightAware ADS-B
Tue 02:53:04 PM 32.0250 34.7620 78° East 197 227 1,700 -293 Descending FlightAware ADS-B
Tue 02:53:30 PM 32.0290 34.7860 79° East 197 227 1,700 -1,015 Level FlightAware ADS-B
Tue 02:54:09 PM 32.0340 34.8250 81° East 160 184 600 -1,015 Descending FlightAware ADS-B
Tue 02:54:35 PM 32.0370 34.8440 79° East 160 184 600  Level FlightAware ADS-B
Tue 02:57:00 PM 32.0000 34.8667 125° Southeast  Level FlightAware Approximate
Tue 02:58:00 PM 32.0095 34.8769 125° Southeast  Level Estimated
Tue 02:59:00 PM 32.0095 34.8769 125° Southeast  Level Estimated
Tue 03:00:00 PM 32.0095 34.8769 125° Southeast  Level Estimated
Tue 03:01:00 PM 32.0095 34.8769 125° Southeast  Level Estimated
Tue 03:02:00 PM 32.0095 34.8769 125° Southeast  Level Estimated

Login

Don't have an account? Register now (free) for customized features, flight alerts, and more!